Time,TemperatureF,DewpointF,PressureIn,WindDirection,WindDirectionDegrees,WindSpeedMPH,WindSpeedGustMPH,Humidity,HourlyPrecipIn,Conditions,Clouds,dailyrainin,SoftwareType,DateUTC
2013-03-22 00:00:00,70.0,69.0,29.65,SSE,157,16.0,16.0,96,0.00,,,0.00,TxWx,2013-03-22 06:00:00,
2013-03-22 00:01:00,70.0,69.0,29.65,South,180,11.0,11.0,96,0.00,,,0.00,TxWx,2013-03-22 06:01:00,
2013-03-22 00:06:00,70.0,69.0,29.65,WSW,247,7.0,8.0,96,0.00,,,0.00,TxWx,2013-03-22 06:06:00,
2013-03-22 00:07:00,70.0,69.0,29.66,SSW,202,5.0,5.0,96,0.00,,,0.00,TxWx,2013-03-22 06:07:00,
2013-03-22 00:10:00,70.0,69.0,29.66,SSE,157,6.0,7.0,96,0.00,,,0.00,TxWx,2013-03-22 06:10:00,
2013-03-22 00:11:00,70.0,69.0,29.66,South,180,16.0,16.0,96,0.00,,,0.00,TxWx,2013-03-22 06:11:00,
2013-03-22 00:12:00,70.0,69.0,29.65,SSE,157,8.0,8.0,96,0.00,,,0.00,TxWx,2013-03-22 06:12:00,
2013-03-22 00:13:00,70.0,69.0,29.66,SE,135,8.0,8.0,96,0.00,,,0.00,TxWx,2013-03-22 06:13:00,
2013-03-22 00:15:00,70.0,69.0,29.65,SSW,202,13.0,13.0,96,0.00,,,0.00,TxWx,2013-03-22 06:15:00,
2013-03-22 00:16:00,70.0,69.0,29.65,SSE,157,7.0,8.0,96,0.00,,,0.00,TxWx,2013-03-22 06:16:00,
2013-03-22 00:18:00,70.0,69.0,29.65,South,180,11.0,11.0,96,0.00,,,0.00,TxWx,2013-03-22 06:18:00,
2013-03-22 00:21:00,70.0,69.0,29.65,South,180,11.0,11.0,96,0.00,,,0.00,TxWx,2013-03-22 06:21:00,
2013-03-22 00:22:00,70.0,69.0,29.65,South,180,11.0,11.0,96,0.00,,,0.00,TxWx,2013-03-22 06:22:00,
2013-03-22 00:23:00,70.0,69.0,29.65,SSW,202,6.0,7.0,96,0.00,,,0.00,TxWx,2013-03-22 06:23:00,
2013-03-22 00:24:00,70.0,69.0,29.65,SSW,202,16.0,16.0,96,0.00,,,0.00,TxWx,2013-03-22 06:24:00,
2013-03-22 00:27:00,70.0,69.0,29.65,SSW,202,13.0,14.0,96,0.00,,,0.00,TxWx,2013-03-22 06:27:00,
2013-03-22 00:30:00,70.0,69.0,29.65,SSW,202,7.0,7.0,96,0.00,,,0.00,TxWx,2013-03-22 06:30:00,
2013-03-22 00:32:00,70.0,69.0,29.65,South,180,8.0,8.0,96,0.00,,,0.00,TxWx,2013-03-22 06:32:00,
2013-03-22 00:33:00,70.0,69.0,29.65,SSW,202,14.0,14.0,96,0.00,,,0.00,TxWx,2013-03-22 06:33:00,
2013-03-22 00:35:00,70.0,69.0,29.65,SSE,157,11.0,11.0,96,0.00,,,0.00,TxWx,2013-03-22 06:35:00,
2013-03-22 00:36:00,70.0,69.0,29.65,SSW,202,8.0,10.0,97,0.00,,,0.00,TxWx,2013-03-22 06:36:00,
2013-03-22 00:37:00,70.0,69.0,29.65,SSE,157,7.0,7.0,97,0.00,,,0.00,TxWx,2013-03-22 06:37:00,
2013-03-22 00:38:00,70.0,69.0,29.65,South,180,11.0,14.0,97,0.00,,,0.00,TxWx,2013-03-22 06:38:00,
2013-03-22 00:42:00,70.0,69.0,29.65,SW,225,11.0,11.0,97,0.00,,,0.00,TxWx,2013-03-22 06:42:00,
2013-03-22 00:43:00,70.0,69.0,29.65,SSW,202,14.0,14.0,97,0.00,,,0.00,TxWx,2013-03-22 06:43:00,
2013-03-22 00:44:00,70.0,69.0,29.65,SW,225,8.0,8.0,97,0.00,,,0.00,TxWx,2013-03-22 06:44:00,
2013-03-22 00:47:00,70.0,69.0,29.65,South,180,12.0,12.0,97,0.00,,,0.00,TxWx,2013-03-22 06:47:00,
2013-03-22 00:48:00,70.0,69.0,29.65,South,180,14.0,14.0,97,0.00,,,0.00,TxWx,2013-03-22 06:48:00,
2013-03-22 00:49:00,70.0,69.0,29.65,South,180,8.0,9.0,97,0.00,,,0.00,TxWx,2013-03-22 06:49:00,
2013-03-22 00:53:00,70.0,69.0,29.65,South,180,13.0,14.0,97,0.00,,,0.00,TxWx,2013-03-22 06:53:00,
2013-03-22 00:54:00,70.0,69.0,29.65,SSW,202,15.0,16.0,97,0.00,,,0.00,TxWx,2013-03-22 06:54:00,
2013-03-22 00:55:00,70.0,69.0,29.65,SSW,202,10.0,10.0,97,0.00,,,0.00,TxWx,2013-03-22 06:55:00,
2013-03-22 00:56:00,70.0,69.0,29.65,SSW,202,5.0,5.0,97,0.00,,,0.00,TxWx,2013-03-22 06:56:00,
2013-03-22 01:00:00,70.0,69.0,29.65,SE,135,6.0,6.0,97,0.00,,,0.00,TxWx,2013-03-22 07:00:00,
2013-03-22 01:01:00,70.0,69.0,29.65,SSW,202,11.0,11.0,97,0.00,,,0.00,TxWx,2013-03-22 07:01:00,
2013-03-22 01:03:00,70.0,69.0,29.65,SSW,202,10.0,11.0,97,0.00,,,0.00,TxWx,2013-03-22 07:03:00,
2013-03-22 01:06:00,70.0,69.0,29.65,SSW,202,10.0,10.0,97,0.00,,,0.00,TxWx,2013-03-22 07:06:00,
2013-03-22 01:07:00,70.0,69.0,29.65,SSE,157,9.0,10.0,97,0.00,,,0.00,TxWx,2013-03-22 07:07:00,
2013-03-22 01:09:00,70.0,69.0,29.65,SSW,202,15.0,15.0,97,0.00,,,0.00,TxWx,2013-03-22 07:09:00,
2013-03-22 01:12:00,70.0,69.0,29.65,South,180,11.0,11.0,97,0.00,,,0.00,TxWx,2013-03-22 07:12:00,
2013-03-22 01:13:00,70.0,69.0,29.65,South,180,6.0,7.0,97,0.00,,,0.00,TxWx,2013-03-22 07:13:00,
2013-03-22 01:14:00,70.0,69.0,29.64,SSE,157,8.0,9.0,97,0.00,,,0.00,TxWx,2013-03-22 07:14:00,
2013-03-22 01:19:00,70.0,69.0,29.64,South,180,8.0,8.0,98,0.00,,,0.00,TxWx,2013-03-22 07:19:00,
2013-03-22 01:20:00,70.0,69.0,29.64,South,180,12.0,12.0,98,0.00,,,0.00,TxWx,2013-03-22 07:20:00,
2013-03-22 01:23:00,70.0,69.0,29.64,SSW,202,8.0,8.0,98,0.00,,,0.00,TxWx,2013-03-22 07:23:00,
2013-03-22 01:24:00,70.0,69.0,29.64,South,180,17.0,18.0,98,0.00,,,0.00,TxWx,2013-03-22 07:24:00,
2013-03-22 01:25:00,70.0,69.0,29.64,SSW,202,8.0,8.0,98,0.00,,,0.00,TxWx,2013-03-22 07:25:00,
2013-03-22 01:29:00,70.0,69.0,29.64,SSE,157,11.0,12.0,98,0.00,,,0.00,TxWx,2013-03-22 07:29:00,
2013-03-22 01:31:00,70.0,69.0,29.64,SSW,202,13.0,13.0,98,0.00,,,0.00,TxWx,2013-03-22 07:31:00,
2013-03-22 01:32:00,70.0,69.0,29.64,SSW,202,12.0,12.0,98,0.00,,,0.00,TxWx,2013-03-22 07:32:00,
2013-03-22 01:33:00,70.0,69.0,29.64,South,180,8.0,9.0,98,0.00,,,0.00,TxWx,2013-03-22 07:33:00,
2013-03-22 01:36:00,70.0,69.0,29.64,SSW,202,5.0,5.0,98,0.00,,,0.00,TxWx,2013-03-22 07:36:00,
2013-03-22 01:38:00,70.0,69.0,29.64,South,180,8.0,8.0,98,0.00,,,0.00,TxWx,2013-03-22 07:38:00,
2013-03-22 01:39:00,70.0,69.0,29.64,South,180,10.0,10.0,98,0.00,,,0.00,TxWx,2013-03-22 07:39:00,
2013-03-22 01:40:00,70.0,69.0,29.64,SSW,202,6.0,6.0,98,0.00,,,0.00,TxWx,2013-03-22 07:40:00,
2013-03-22 01:41:00,70.0,69.0,29.63,SSW,202,7.0,8.0,98,0.00,,,0.00,TxWx,2013-03-22 07:41:00,
2013-03-22 01:45:00,70.0,69.0,29.63,SSW,202,7.0,8.0,98,0.00,,,0.00,TxWx,2013-03-22 07:45:00,
2013-03-22 01:47:00,70.0,69.0,29.63,SSE,157,10.0,11.0,98,0.00,,,0.00,TxWx,2013-03-22 07:47:00,
2013-03-22 01:51:00,70.0,69.0,29.63,SW,225,10.0,10.0,98,0.00,,,0.00,TxWx,2013-03-22 07:51:00,
2013-03-22 01:52:00,70.0,69.0,29.63,South,180,10.0,11.0,98,0.00,,,0.00,TxWx,2013-03-22 07:52:00,
2013-03-22 01:53:00,70.0,69.0,29.63,South,180,10.0,10.0,98,0.00,,,0.00,TxWx,2013-03-22 07:53:00,
2013-03-22 01:56:00,70.0,69.0,29.63,SSW,202,8.0,8.0,98,0.00,,,0.00,TxWx,2013-03-22 07:56:00,
2013-03-22 01:57:00,70.0,69.0,29.63,South,180,8.0,11.0,98,0.00,,,0.00,TxWx,2013-03-22 07:57:00,
2013-03-22 01:58:00,70.0,69.0,29.63,SSW,202,10.0,10.0,98,0.00,,,0.00,TxWx,2013-03-22 07:58:00,
2013-03-22 02:03:00,70.0,69.0,29.63,South,180,14.0,16.0,98,0.00,,,0.00,TxWx,2013-03-22 08:03:00,
2013-03-22 02:04:00,70.0,69.0,29.63,SSW,202,10.0,10.0,98,0.00,,,0.00,TxWx,2013-03-22 08:04:00,
2013-03-22 02:06:00,70.0,69.0,29.63,South,180,14.0,14.0,98,0.00,,,0.00,TxWx,2013-03-22 08:06:00,
2013-03-22 02:08:00,70.0,69.0,29.62,SW,225,8.0,10.0,98,0.00,,,0.00,TxWx,2013-03-22 08:08:00,
2013-03-22 02:09:00,70.0,69.0,29.62,West,270,8.0,8.0,98,0.00,,,0.00,TxWx,2013-03-22 08:09:00,
2013-03-22 02:11:00,70.0,69.0,29.62,SSW,202,9.0,10.0,98,0.00,,,0.00,TxWx,2013-03-22 08:11:00,
2013-03-22 02:12:00,70.0,69.0,29.62,SSW,202,11.0,13.0,98,0.00,,,0.00,TxWx,2013-03-22 08:12:00,
2013-03-22 02:15:00,70.0,69.0,29.62,SSW,202,19.0,19.0,98,0.00,,,0.00,TxWx,2013-03-22 08:15:00,
2013-03-22 02:17:00,70.0,69.0,29.62,South,180,15.0,15.0,98,0.00,,,0.00,TxWx,2013-03-22 08:17:00,
2013-03-22 02:19:00,70.0,69.0,29.62,West,270,5.0,6.0,98,0.00,,,0.00,TxWx,2013-03-22 08:19:00,
2013-03-22 02:20:00,70.0,69.0,29.62,SSW,202,11.0,13.0,98,0.00,,,0.00,TxWx,2013-03-22 08:20:00,
2013-03-22 02:22:00,70.0,69.0,29.62,SSE,157,6.0,6.0,98,0.00,,,0.00,TxWx,2013-03-22 08:22:00,
2013-03-22 02:24:00,70.0,69.0,29.62,SW,225,11.0,12.0,98,0.00,,,0.00,TxWx,2013-03-22 08:24:00,
2013-03-22 02:27:00,70.0,69.0,29.62,SW,225,8.0,8.0,98,0.00,,,0.00,TxWx,2013-03-22 08:27:00,
2013-03-22 02:28:00,70.0,69.0,29.61,SE,135,7.0,8.0,98,0.00,,,0.00,TxWx,2013-03-22 08:28:00,
2013-03-22 02:29:00,70.0,69.0,29.62,SSW,202,11.0,13.0,98,0.00,,,0.00,TxWx,2013-03-22 08:29:00,
2013-03-22 02:31:00,70.0,69.0,29.62,SSW,202,16.0,16.0,98,0.00,,,0.00,TxWx,2013-03-22 08:31:00,
2013-03-22 02:33:00,70.0,69.0,29.62,SW,225,10.0,10.0,98,0.00,,,0.00,TxWx,2013-03-22 08:33:00,
2013-03-22 02:35:00,70.0,69.0,29.62,SSW,202,13.0,13.0,98,0.00,,,0.00,TxWx,2013-03-22 08:35:00,
2013-03-22 02:36:00,70.0,69.0,29.62,SSW,202,11.0,14.0,98,0.00,,,0.00,TxWx,2013-03-22 08:36:00,
2013-03-22 02:38:00,70.0,69.0,29.62,SSW,202,16.0,16.0,98,0.00,,,0.00,TxWx,2013-03-22 08:38:00,
2013-03-22 02:39:00,70.0,69.0,29.62,SSW,202,15.0,15.0,98,0.00,,,0.00,TxWx,2013-03-22 08:39:00,
2013-03-22 02:41:00,70.0,69.0,29.62,SSW,202,11.0,13.0,98,0.00,,,0.00,TxWx,2013-03-22 08:41:00,
2013-03-22 02:42:00,70.0,69.0,29.62,SSW,202,16.0,18.0,98,0.00,,,0.00,TxWx,2013-03-22 08:42:00,
2013-03-22 02:45:00,70.0,69.0,29.61,SSW,202,9.0,9.0,98,0.00,,,0.00,TxWx,2013-03-22 08:45:00,
2013-03-22 02:47:00,70.0,69.0,29.61,SSW,202,14.0,14.0,98,0.00,,,0.00,TxWx,2013-03-22 08:47:00,
2013-03-22 02:48:00,70.0,69.0,29.61,SSW,202,11.0,11.0,98,0.00,,,0.00,TxWx,2013-03-22 08:48:00,
2013-03-22 02:50:00,70.0,69.0,29.61,WSW,247,8.0,9.0,98,0.00,,,0.00,TxWx,2013-03-22 08:50:00,
2013-03-22 02:53:00,70.0,69.0,29.61,SW,225,8.0,8.0,98,0.00,,,0.00,TxWx,2013-03-22 08:53:00,
2013-03-22 02:54:00,70.0,69.0,29.61,South,180,13.0,14.0,98,0.00,,,0.00,TxWx,2013-03-22 08:54:00,
2013-03-22 02:56:00,70.0,69.0,29.61,SSW,202,5.0,5.0,98,0.00,,,0.00,TxWx,2013-03-22 08:56:00,
2013-03-22 02:59:00,70.0,69.0,29.61,SSW,202,11.0,12.0,98,0.00,,,0.00,TxWx,2013-03-22 08:59:00,
2013-03-22 03:00:00,70.0,69.0,29.61,SSW,202,6.0,6.0,98,0.00,,,0.00,TxWx,2013-03-22 09:00:00,
2013-03-22 03:02:00,70.0,69.0,29.61,South,180,10.0,10.0,98,0.00,,,0.00,TxWx,2013-03-22 09:02:00,
2013-03-22 03:04:00,70.0,69.0,29.61,SE,135,6.0,7.0,98,0.00,,,0.00,TxWx,2013-03-22 09:04:00,
2013-03-22 03:07:00,70.0,69.0,29.61,SSW,202,8.0,9.0,98,0.00,,,0.00,TxWx,2013-03-22 09:07:00,
2013-03-22 03:11:00,70.0,69.0,29.61,SSW,202,5.0,6.0,98,0.00,,,0.00,TxWx,2013-03-22 09:11:00,
2013-03-22 03:12:00,70.0,69.0,29.61,SSE,157,8.0,8.0,98,0.00,,,0.00,TxWx,2013-03-22 09:12:00,
2013-03-22 03:14:00,70.0,69.0,29.61,SSE,157,15.0,15.0,98,0.00,,,0.00,TxWx,2013-03-22 09:14:00,
2013-03-22 03:16:00,70.0,69.0,29.61,SSE,157,8.0,8.0,98,0.00,,,0.00,TxWx,2013-03-22 09:16:00,
2013-03-22 03:17:00,70.0,69.0,29.61,SSW,202,8.0,8.0,98,0.00,,,0.00,TxWx,2013-03-22 09:17:00,
2013-03-22 03:18:00,70.0,69.0,29.61,SSW,202,13.0,13.0,98,0.00,,,0.00,TxWx,2013-03-22 09:18:00,
2013-03-22 03:22:00,70.0,69.0,29.61,SSW,202,13.0,13.0,98,0.00,,,0.00,TxWx,2013-03-22 09:22:00,
2013-03-22 03:23:00,70.0,69.0,29.61,SW,225,7.0,7.0,98,0.00,,,0.00,TxWx,2013-03-22 09:23:00,
2013-03-22 03:24:00,70.0,69.0,29.61,SSE,157,13.0,13.0,98,0.00,,,0.00,TxWx,2013-03-22 09:24:00,
2013-03-22 03:27:00,70.0,69.0,29.61,SW,225,4.0,4.0,98,0.00,,,0.00,TxWx,2013-03-22 09:27:00,
2013-03-22 03:29:00,70.0,69.0,29.62,South,180,7.0,7.0,98,0.00,,,0.00,TxWx,2013-03-22 09:29:00,
2013-03-22 03:31:00,70.0,69.0,29.61,SSW,202,7.0,8.0,98,0.00,,,0.00,TxWx,2013-03-22 09:31:00,
2013-03-22 03:33:00,70.0,69.0,29.61,South,180,9.0,10.0,98,0.00,,,0.00,TxWx,2013-03-22 09:33:00,
2013-03-22 03:35:00,70.0,69.0,29.61,South,180,7.0,7.0,98,0.00,,,0.00,TxWx,2013-03-22 09:35:00,
2013-03-22 03:37:00,70.0,69.0,29.61,SSW,202,14.0,14.0,98,0.00,,,0.00,TxWx,2013-03-22 09:37:00,
2013-03-22 03:38:00,70.0,69.0,29.61,SSW,202,11.0,11.0,98,0.00,,,0.00,TxWx,2013-03-22 09:38:00,
2013-03-22 03:39:00,70.0,69.0,29.61,South,180,7.0,7.0,98,0.00,,,0.00,TxWx,2013-03-22 09:39:00,
2013-03-22 03:41:00,70.0,69.0,29.61,SSW,202,10.0,10.0,98,0.00,,,0.00,TxWx,2013-03-22 09:41:00,
2013-03-22 03:43:00,70.0,69.0,29.61,SW,225,5.0,6.0,98,0.00,,,0.00,TxWx,2013-03-22 09:43:00,
2013-03-22 03:44:00,70.0,69.0,29.61,SSW,202,13.0,13.0,98,0.00,,,0.00,TxWx,2013-03-22 09:44:00,
2013-03-22 03:47:00,70.0,69.0,29.61,SSW,202,10.0,11.0,98,0.00,,,0.00,TxWx,2013-03-22 09:47:00,
2013-03-22 03:48:00,70.0,69.0,29.61,SW,225,5.0,5.0,98,0.00,,,0.00,TxWx,2013-03-22 09:48:00,
2013-03-22 03:50:00,70.0,69.0,29.61,South,180,10.0,10.0,98,0.00,,,0.00,TxWx,2013-03-22 09:50:00,
2013-03-22 03:51:00,70.0,69.0,29.61,SSW,202,10.0,11.0,98,0.00,,,0.00,TxWx,2013-03-22 09:51:00,
2013-03-22 03:53:00,70.0,69.0,29.61,SSW,202,5.0,5.0,98,0.00,,,0.00,TxWx,2013-03-22 09:53:00,
2013-03-22 03:55:00,70.0,69.0,29.61,SW,225,8.0,10.0,98,0.00,,,0.00,TxWx,2013-03-22 09:55:00,
2013-03-22 03:57:00,70.0,69.0,29.61,SSW,202,11.0,11.0,98,0.00,,,0.00,TxWx,2013-03-22 09:57:00,
2013-03-22 03:58:00,70.0,69.0,29.61,SSW,202,6.0,7.0,98,0.00,,,0.00,TxWx,2013-03-22 09:58:00,
2013-03-22 04:01:00,70.0,69.0,29.61,SSW,202,14.0,14.0,98,0.00,,,0.00,TxWx,2013-03-22 10:01:00,
2013-03-22 04:03:00,70.0,69.0,29.61,WSW,247,5.0,5.0,98,0.00,,,0.00,TxWx,2013-03-22 10:03:00,
2013-03-22 04:06:00,70.0,69.0,29.61,SSW,202,10.0,12.0,98,0.00,,,0.00,TxWx,2013-03-22 10:06:00,
2013-03-22 04:07:00,70.0,69.0,29.61,South,180,5.0,6.0,98,0.00,,,0.00,TxWx,2013-03-22 10:07:00,
2013-03-22 04:09:00,70.0,69.0,29.62,SSW,202,8.0,8.0,98,0.00,,,0.00,TxWx,2013-03-22 10:09:00,
2013-03-22 04:12:00,70.0,69.0,29.62,SW,225,7.0,9.0,98,0.00,,,0.00,TxWx,2013-03-22 10:12:00,
2013-03-22 04:13:00,70.0,69.0,29.62,SSW,202,6.0,6.0,98,0.00,,,0.00,TxWx,2013-03-22 10:13:00,
2013-03-22 04:14:00,70.0,69.0,29.62,WSW,247,8.0,10.0,98,0.00,,,0.00,TxWx,2013-03-22 10:14:00,
2013-03-22 04:18:00,70.0,69.0,29.62,SW,225,10.0,11.0,98,0.00,,,0.00,TxWx,2013-03-22 10:18:00,
2013-03-22 04:19:00,70.0,69.0,29.62,SSW,202,6.0,6.0,98,0.00,,,0.00,TxWx,2013-03-22 10:19:00,
2013-03-22 04:22:00,70.0,69.0,29.62,SSW,202,7.0,7.0,98,0.00,,,0.00,TxWx,2013-03-22 10:22:00,
2013-03-22 04:23:00,70.0,69.0,29.62,SSW,202,9.0,10.0,98,0.00,,,0.00,TxWx,2013-03-22 10:23:00,
2013-03-22 04:25:00,70.0,69.0,29.62,SSE,157,6.0,6.0,98,0.00,,,0.00,TxWx,2013-03-22 10:25:00,
2013-03-22 04:26:00,70.0,69.0,29.62,SSW,202,10.0,11.0,98,0.00,,,0.00,TxWx,2013-03-22 10:26:00,
2013-03-22 04:28:00,70.0,69.0,29.62,WSW,247,7.0,8.0,98,0.00,,,0.00,TxWx,2013-03-22 10:28:00,
2013-03-22 04:30:00,70.0,69.0,29.62,SSW,202,14.0,14.0,98,0.00,,,0.00,TxWx,2013-03-22 10:30:00,
2013-03-22 04:31:00,70.0,69.0,29.62,SSW,202,6.0,8.0,98,0.00,,,0.00,TxWx,2013-03-22 10:31:00,
2013-03-22 04:32:00,70.0,69.0,29.62,SSW,202,11.0,11.0,98,0.00,,,0.00,TxWx,2013-03-22 10:32:00,
2013-03-22 04:33:00,70.0,69.0,29.62,SW,225,10.0,10.0,98,0.00,,,0.00,TxWx,2013-03-22 10:33:00,
2013-03-22 04:37:00,70.0,69.0,29.62,South,180,5.0,5.0,98,0.00,,,0.00,TxWx,2013-03-22 10:37:00,
2013-03-22 04:38:00,70.0,69.0,29.62,SSW,202,6.0,6.0,98,0.00,,,0.00,TxWx,2013-03-22 10:38:00,
2013-03-22 04:39:00,70.0,69.0,29.62,South,180,3.0,4.0,98,0.00,,,0.00,TxWx,2013-03-22 10:39:00,
2013-03-22 04:40:00,70.0,69.0,29.62,SW,225,4.0,5.0,98,0.00,,,0.00,TxWx,2013-03-22 10:40:00,
2013-03-22 04:42:00,70.0,69.0,29.63,South,180,8.0,9.0,98,0.00,,,0.00,TxWx,2013-03-22 10:42:00,
2013-03-22 04:45:00,71.0,70.0,29.62,South,180,7.0,7.0,98,0.00,,,0.00,TxWx,2013-03-22 10:45:00,
2013-03-22 04:46:00,71.0,70.0,29.62,SW,225,4.0,5.0,98,0.00,,,0.00,TxWx,2013-03-22 10:46:00,
2013-03-22 04:48:00,71.0,70.0,29.62,South,180,6.0,6.0,98,0.00,,,0.00,TxWx,2013-03-22 10:48:00,
2013-03-22 04:50:00,71.0,70.0,29.62,South,180,3.0,5.0,98,0.00,,,0.00,TxWx,2013-03-22 10:50:00,
2013-03-22 04:51:00,71.0,70.0,29.62,SW,225,6.0,6.0,98,0.00,,,0.00,TxWx,2013-03-22 10:51:00,
2013-03-22 04:53:00,71.0,70.0,29.63,SSW,202,7.0,8.0,98,0.00,,,0.00,TxWx,2013-03-22 10:53:00,
2013-03-22 04:54:00,71.0,70.0,29.63,South,180,6.0,6.0,98,0.00,,,0.00,TxWx,2013-03-22 10:54:00,
2013-03-22 04:55:00,71.0,70.0,29.63,SSE,157,11.0,11.0,98,0.00,,,0.00,TxWx,2013-03-22 10:55:00,
2013-03-22 04:57:00,71.0,70.0,29.63,SSW,202,6.0,6.0,98,0.00,,,0.00,TxWx,2013-03-22 10:57:00,
2013-03-22 04:59:00,71.0,70.0,29.63,SW,225,6.0,7.0,98,0.00,,,0.00,TxWx,2013-03-22 10:59:00,
2013-03-22 05:00:00,71.0,70.0,29.63,SSE,157,3.0,3.0,98,0.00,,,0.00,TxWx,2013-03-22 11:00:00,
2013-03-22 05:01:00,71.0,70.0,29.63,South,180,7.0,8.0,98,0.00,,,0.00,TxWx,2013-03-22 11:01:00,
2013-03-22 05:03:00,71.0,70.0,29.63,South,180,5.0,5.0,98,0.00,,,0.00,TxWx,2013-03-22 11:03:00,
2013-03-22 05:05:00,71.0,70.0,29.63,SSW,202,5.0,6.0,98,0.00,,,0.00,TxWx,2013-03-22 11:05:00,
2013-03-22 05:06:00,71.0,70.0,29.63,SW,225,5.0,5.0,98,0.00,,,0.00,TxWx,2013-03-22 11:06:00,
2013-03-22 05:07:00,71.0,70.0,29.63,SSW,202,5.0,5.0,98,0.00,,,0.00,TxWx,2013-03-22 11:07:00,
2013-03-22 05:08:00,71.0,70.0,29.63,South,180,3.0,3.0,98,0.00,,,0.00,TxWx,2013-03-22 11:08:00,
2013-03-22 05:12:00,71.0,70.0,29.63,SSW,202,6.0,6.0,98,0.00,,,0.00,TxWx,2013-03-22 11:12:00,
2013-03-22 05:13:00,71.0,70.0,29.63,SSW,202,6.0,7.0,98,0.00,,,0.00,TxWx,2013-03-22 11:13:00,
2013-03-22 05:17:00,71.0,70.0,29.63,SW,225,5.0,5.0,98,0.00,,,0.00,TxWx,2013-03-22 11:17:00,
2013-03-22 05:18:00,71.0,70.0,29.64,SSW,202,5.0,5.0,98,0.00,,,0.00,TxWx,2013-03-22 11:18:00,
2013-03-22 05:19:00,71.0,70.0,29.64,SSW,202,10.0,10.0,98,0.00,,,0.00,TxWx,2013-03-22 11:19:00,
2013-03-22 05:20:00,71.0,70.0,29.64,SSE,157,6.0,6.0,98,0.00,,,0.00,TxWx,2013-03-22 11:20:00,
2013-03-22 05:24:00,71.0,70.0,29.64,South,180,5.0,5.0,98,0.00,,,0.00,TxWx,2013-03-22 11:24:00,
2013-03-22 05:26:00,71.0,70.0,29.64,South,180,5.0,5.0,98,0.00,,,0.00,TxWx,2013-03-22 11:26:00,
2013-03-22 05:29:00,71.0,70.0,29.64,SSE,157,5.0,6.0,98,0.00,,,0.00,TxWx,2013-03-22 11:29:00,
2013-03-22 05:31:00,71.0,70.0,29.64,SSW,202,6.0,6.0,98,0.00,,,0.00,TxWx,2013-03-22 11:31:00,
2013-03-22 05:32:00,71.0,70.0,29.64,South,180,4.0,5.0,98,0.00,,,0.00,TxWx,2013-03-22 11:32:00,
2013-03-22 05:33:00,71.0,70.0,29.64,SSW,202,4.0,4.0,98,0.00,,,0.00,TxWx,2013-03-22 11:33:00,
2013-03-22 05:35:00,71.0,70.0,29.64,SW,225,5.0,6.0,98,0.00,,,0.00,TxWx,2013-03-22 11:35:00,
2013-03-22 05:36:00,71.0,70.0,29.64,South,180,6.0,6.0,98,0.00,,,0.00,TxWx,2013-03-22 11:36:00,
2013-03-22 05:38:00,71.0,70.0,29.64,SSW,202,5.0,6.0,98,0.00,,,0.00,TxWx,2013-03-22 11:38:00,
2013-03-22 05:40:00,71.0,5.0,29.64,SSE,157,8.0,8.0,98,0.00,,,0.00,TxWx,2013-03-22 11:40:00,
2013-03-22 05:42:00,71.0,70.0,29.64,SE,135,4.0,4.0,98,0.00,,,0.00,TxWx,2013-03-22 11:42:00,
2013-03-22 05:44:00,71.0,70.0,29.64,South,180,8.0,10.0,98,0.00,,,0.00,TxWx,2013-03-22 11:44:00,
2013-03-22 05:46:00,71.0,70.0,29.65,SSE,157,5.0,6.0,98,0.00,,,0.00,TxWx,2013-03-22 11:46:00,
2013-03-22 05:47:00,71.0,70.0,29.64,SW,225,4.0,5.0,98,0.00,,,0.00,TxWx,2013-03-22 11:47:00,
2013-03-22 05:49:00,71.0,70.0,29.65,SSE,157,6.0,6.0,98,0.00,,,0.00,TxWx,2013-03-22 11:49:00,
2013-03-22 05:51:00,71.0,70.0,29.65,SSW,202,7.0,7.0,98,0.00,,,0.00,TxWx,2013-03-22 11:51:00,
2013-03-22 05:52:00,71.0,70.0,29.65,SSW,202,5.0,6.0,98,0.00,,,0.00,TxWx,2013-03-22 11:52:00,
2013-03-22 05:54:00,71.0,70.0,29.65,SW,225,4.0,5.0,98,0.00,,,0.00,TxWx,2013-03-22 11:54:00,
2013-03-22 05:57:00,71.0,70.0,29.65,SSW,202,3.0,3.0,98,0.00,,,0.00,TxWx,2013-03-22 11:57:00,
2013-03-22 05:58:00,71.0,70.0,29.65,SSE,157,5.0,5.0,98,0.00,,,0.00,TxWx,2013-03-22 11:58:00,
2013-03-22 06:00:00,71.0,70.0,29.65,SW,225,3.0,3.0,98,0.00,,,0.00,TxWx,2013-03-22 12:00:00,
2013-03-22 06:02:00,71.0,70.0,29.65,SW,225,4.0,5.0,98,0.00,,,0.00,TxWx,2013-03-22 12:02:00,
2013-03-22 06:03:00,71.0,70.0,29.65,SSE,157,6.0,6.0,98,0.00,,,0.00,TxWx,2013-03-22 12:03:00,
2013-03-22 06:05:00,71.0,70.0,29.65,SSE,157,6.0,6.0,98,0.00,,,0.00,TxWx,2013-03-22 12:05:00,
2013-03-22 06:06:00,71.0,70.0,29.65,South,180,5.0,6.0,98,0.00,,,0.00,TxWx,2013-03-22 12:06:00,
2013-03-22 06:08:00,71.0,70.0,29.65,SE,135,3.0,4.0,98,0.00,,,0.00,TxWx,2013-03-22 12:08:00,
2013-03-22 06:09:00,71.0,70.0,29.65,SSW,202,5.0,5.0,98,0.00,,,0.00,TxWx,2013-03-22 12:09:00,
2013-03-22 06:11:00,71.0,70.0,29.65,SSW,202,6.0,6.0,98,0.00,,,0.00,TxWx,2013-03-22 12:11:00,
2013-03-22 06:14:00,71.0,70.0,29.65,South,180,5.0,5.0,98,0.00,,,0.00,TxWx,2013-03-22 12:14:00,
2013-03-22 06:17:00,71.0,70.0,29.65,SSW,202,9.0,9.0,98,0.00,,,0.00,TxWx,2013-03-22 12:17:00,
2013-03-22 06:19:00,71.0,70.0,29.65,South,180,9.0,10.0,98,0.00,,,0.00,TxWx,2013-03-22 12:19:00,
2013-03-22 06:22:00,71.0,70.0,29.65,South,180,8.0,8.0,98,0.00,,,0.00,TxWx,2013-03-22 12:22:00,
2013-03-22 06:25:00,71.0,70.0,29.65,SSW,202,5.0,5.0,98,0.00,,,0.00,TxWx,2013-03-22 12:25:00,
2013-03-22 06:26:00,71.0,70.0,29.65,SSW,202,5.0,5.0,98,0.00,,,0.00,TxWx,2013-03-22 12:26:00,
2013-03-22 06:28:00,71.0,70.0,29.65,South,180,2.0,3.0,98,0.00,,,0.00,TxWx,2013-03-22 12:28:00,
2013-03-22 06:31:00,71.0,70.0,29.65,SSE,157,7.0,8.0,98,0.00,,,0.00,TxWx,2013-03-22 12:31:00,
2013-03-22 06:32:00,71.0,70.0,29.65,SSW,202,8.0,8.0,98,0.00,,,0.00,TxWx,2013-03-22 12:32:00,
2013-03-22 06:36:00,71.0,70.0,29.66,South,180,3.0,4.0,98,0.00,,,0.00,TxWx,2013-03-22 12:36:00,
2013-03-22 06:38:00,71.0,70.0,29.66,SE,135,3.0,3.0,98,0.00,,,0.00,TxWx,2013-03-22 12:38:00,
2013-03-22 06:42:00,71.0,70.0,29.66,SE,135,3.0,3.0,98,0.00,,,0.00,TxWx,2013-03-22 12:42:00,
2013-03-22 06:43:00,71.0,70.0,29.66,SSE,157,7.0,9.0,98,0.00,,,0.00,TxWx,2013-03-22 12:43:00,
2013-03-22 06:44:00,71.0,70.0,29.66,South,180,7.0,7.0,98,0.00,,,0.00,TxWx,2013-03-22 12:44:00,
2013-03-22 06:48:00,71.0,70.0,29.66,SSW,202,6.0,6.0,98,0.00,,,0.00,TxWx,2013-03-22 12:48:00,
2013-03-22 06:49:00,71.0,70.0,29.66,South,180,5.0,5.0,98,0.00,,,0.00,TxWx,2013-03-22 12:49:00,
2013-03-22 06:50:00,71.0,70.0,29.66,South,180,3.0,3.0,98,0.00,,,0.00,TxWx,2013-03-22 12:50:00,
2013-03-22 06:51:00,71.0,70.0,29.66,SE,135,6.0,8.0,98,0.00,,,0.00,TxWx,2013-03-22 12:51:00,
2013-03-22 06:53:00,71.0,70.0,29.66,SSE,157,7.0,8.0,98,0.00,,,0.00,TxWx,2013-03-22 12:53:00,
2013-03-22 06:57:00,71.0,70.0,29.66,SSW,202,4.0,4.0,98,0.00,,,0.00,TxWx,2013-03-22 12:57:00,
2013-03-22 06:59:00,71.0,70.0,29.66,SSE,157,7.0,7.0,98,0.00,,,0.00,TxWx,2013-03-22 12:59:00,
2013-03-22 07:00:00,71.0,70.0,29.67,SSE,157,6.0,6.0,98,0.00,,,0.00,TxWx,2013-03-22 13:00:00,
2013-03-22 07:02:00,71.0,70.0,29.67,South,180,5.0,6.0,98,0.00,,,0.00,TxWx,2013-03-22 13:02:00,
2013-03-22 07:03:00,71.0,70.0,29.67,South,180,4.0,5.0,98,0.00,,,0.00,TxWx,2013-03-22 13:03:00,
2013-03-22 07:06:00,71.0,70.0,29.67,SSW,202,4.0,5.0,98,0.00,,,0.00,TxWx,2013-03-22 13:06:00,
2013-03-22 07:08:00,71.0,70.0,29.67,SSW,202,6.0,6.0,98,0.00,,,0.00,TxWx,2013-03-22 13:08:00,
2013-03-22 07:09:00,71.0,70.0,29.67,South,180,6.0,7.0,98,0.00,,,0.00,TxWx,2013-03-22 13:09:00,
2013-03-22 07:12:00,71.0,70.0,29.67,South,180,6.0,6.0,98,0.00,,,0.00,TxWx,2013-03-22 13:12:00,
2013-03-22 07:13:00,71.0,70.0,29.67,South,180,6.0,6.0,98,0.00,,,0.00,TxWx,2013-03-22 13:13:00,
2013-03-22 07:15:00,71.0,70.0,29.67,SSE,157,2.0,2.0,98,0.00,,,0.00,TxWx,2013-03-22 13:15:00,
2013-03-22 07:16:00,71.0,70.0,29.67,SSE,157,5.0,5.0,98,0.00,,,0.00,TxWx,2013-03-22 13:16:00,
2013-03-22 07:18:00,71.0,70.0,29.67,SSE,157,6.0,6.0,98,0.00,,,0.00,TxWx,2013-03-22 13:18:00,
2013-03-22 07:20:00,71.0,70.0,29.67,SSE,157,3.0,3.0,98,0.00,,,0.00,TxWx,2013-03-22 13:20:00,
2013-03-22 07:21:00,71.0,70.0,29.67,SSE,157,6.0,6.0,98,0.00,,,0.00,TxWx,2013-03-22 13:21:00,
2013-03-22 07:23:00,71.0,70.0,29.67,SSW,202,4.0,4.0,98,0.00,,,0.00,TxWx,2013-03-22 13:23:00,
2013-03-22 07:24:00,71.0,70.0,29.67,SSW,202,5.0,5.0,98,0.00,,,0.00,TxWx,2013-03-22 13:24:00,
2013-03-22 07:26:00,71.0,70.0,29.67,South,180,6.0,7.0,98,0.00,,,0.00,TxWx,2013-03-22 13:26:00,
2013-03-22 07:28:00,71.0,70.0,29.67,South,180,5.0,5.0,98,0.00,,,0.00,TxWx,2013-03-22 13:28:00,
2013-03-22 07:30:00,71.0,70.0,29.67,South,180,6.0,7.0,98,0.00,,,0.00,TxWx,2013-03-22 13:30:00,
2013-03-22 07:32:00,71.0,70.0,29.67,SE,135,5.0,5.0,98,0.00,,,0.00,TxWx,2013-03-22 13:32:00,
2013-03-22 07:33:00,71.0,70.0,29.67,SSW,202,5.0,5.0,98,0.00,,,0.00,TxWx,2013-03-22 13:33:00,
2013-03-22 07:35:00,71.0,70.0,29.67,SSE,157,3.0,3.0,98,0.00,,,0.00,TxWx,2013-03-22 13:35:00,
2013-03-22 07:36:00,71.0,70.0,29.67,SSW,202,4.0,5.0,98,0.00,,,0.00,TxWx,2013-03-22 13:36:00,
2013-03-22 07:37:00,71.0,70.0,29.67,SSW,202,4.0,4.0,98,0.00,,,0.00,TxWx,2013-03-22 13:37:00,
2013-03-22 07:40:00,71.0,70.0,29.68,SSW,202,2.0,3.0,98,0.00,,,0.00,TxWx,2013-03-22 13:40:00,
2013-03-22 07:42:00,71.0,70.0,29.68,SSE,157,3.0,3.0,98,0.00,,,0.00,TxWx,2013-03-22 13:42:00,
2013-03-22 07:45:00,71.0,70.0,29.68,South,180,3.0,3.0,98,0.00,,,0.00,TxWx,2013-03-22 13:45:00,
2013-03-22 07:47:00,71.0,70.0,29.68,South,180,8.0,8.0,98,0.00,,,0.00,TxWx,2013-03-22 13:47:00,
2013-03-22 07:48:00,71.0,70.0,29.68,South,180,5.0,5.0,98,0.00,,,0.00,TxWx,2013-03-22 13:48:00,
2013-03-22 07:50:00,71.0,70.0,29.68,SSE,157,4.0,4.0,98,0.00,,,0.00,TxWx,2013-03-22 13:50:00,
2013-03-22 07:53:00,71.0,70.0,29.68,South,180,3.0,3.0,98,0.00,,,0.00,TxWx,2013-03-22 13:53:00,
2013-03-22 07:54:00,71.0,70.0,29.68,SSW,202,6.0,6.0,98,0.00,,,0.00,TxWx,2013-03-22 13:54:00,
2013-03-22 07:55:00,71.0,70.0,29.68,SSW,202,5.0,5.0,98,0.00,,,0.00,TxWx,2013-03-22 13:55:00,
2013-03-22 07:58:00,71.0,70.0,29.68,South,180,6.0,6.0,98,0.00,,,0.00,TxWx,2013-03-22 13:58:00,
2013-03-22 07:59:00,71.0,70.0,29.68,South,180,5.0,6.0,98,0.00,,,0.00,TxWx,2013-03-22 13:59:00,
2013-03-22 08:03:00,71.0,70.0,29.68,South,180,6.0,6.0,98,0.00,,,0.00,TxWx,2013-03-22 14:03:00,
2013-03-22 08:04:00,71.0,70.0,29.69,South,180,6.0,6.0,98,0.00,,,0.00,TxWx,2013-03-22 14:04:00,
2013-03-22 08:06:00,71.0,70.0,29.68,SSE,157,3.0,4.0,98,0.00,,,0.00,TxWx,2013-03-22 14:06:00,
2013-03-22 08:08:00,71.0,70.0,29.68,South,180,7.0,8.0,98,0.00,,,0.00,TxWx,2013-03-22 14:08:00,
2013-03-22 08:10:00,71.0,70.0,29.69,SSW,202,6.0,6.0,98,0.00,,,0.00,TxWx,2013-03-22 14:10:00,
2013-03-22 08:11:00,71.0,70.0,29.69,SSE,157,8.0,8.0,98,0.00,,,0.00,TxWx,2013-03-22 14:11:00,
2013-03-22 08:14:00,71.0,70.0,29.69,South,180,9.0,9.0,98,0.00,,,0.00,TxWx,2013-03-22 14:14:00,
2013-03-22 08:15:00,71.0,70.0,29.68,SW,225,6.0,6.0,98,0.00,,,0.00,TxWx,2013-03-22 14:15:00,
2013-03-22 08:17:00,71.0,70.0,29.69,SSE,157,5.0,5.0,98,0.00,,,0.00,TxWx,2013-03-22 14:17:00,
2013-03-22 08:18:00,71.0,70.0,29.69,SE,135,6.0,7.0,98,0.00,,,0.00,TxWx,2013-03-22 14:18:00,
2013-03-22 08:20:00,71.0,70.0,29.69,SSE,157,3.0,3.0,98,0.00,,,0.00,TxWx,2013-03-22 14:20:00,
2013-03-22 08:22:00,71.0,70.0,29.69,SE,135,4.0,5.0,98,0.00,,,0.00,TxWx,2013-03-22 14:22:00,
2013-03-22 08:23:00,71.0,70.0,29.69,South,180,5.0,5.0,98,0.00,,,0.00,TxWx,2013-03-22 14:23:00,
2013-03-22 08:26:00,71.0,70.0,29.69,South,180,5.0,5.0,98,0.00,,,0.00,TxWx,2013-03-22 14:26:00,
2013-03-22 08:28:00,71.0,70.0,29.69,South,180,10.0,10.0,98,0.00,,,0.00,TxWx,2013-03-22 14:28:00,
2013-03-22 08:29:00,71.0,70.0,29.69,SSW,202,8.0,8.0,98,0.00,,,0.00,TxWx,2013-03-22 14:29:00,
2013-03-22 08:33:00,71.0,70.0,29.69,South,180,8.0,8.0,98,0.00,,,0.00,TxWx,2013-03-22 14:33:00,
2013-03-22 08:34:00,71.0,70.0,29.69,SSE,157,7.0,7.0,98,0.00,,,0.00,TxWx,2013-03-22 14:34:00,
2013-03-22 08:36:00,71.0,70.0,29.69,South,180,5.0,5.0,98,0.00,,,0.00,TxWx,2013-03-22 14:36:00,
2013-03-22 08:39:00,71.0,70.0,29.70,South,180,4.0,4.0,98,0.00,,,0.00,TxWx,2013-03-22 14:39:00,
2013-03-22 08:41:00,71.0,70.0,29.70,SE,135,5.0,5.0,98,0.00,,,0.00,TxWx,2013-03-22 14:41:00,
2013-03-22 08:42:00,71.0,70.0,29.70,SSE,157,6.0,7.0,98,0.00,,,0.00,TxWx,2013-03-22 14:42:00,
2013-03-22 08:45:00,71.0,70.0,29.69,South,180,5.0,6.0,98,0.00,,,0.00,TxWx,2013-03-22 14:45:00,
2013-03-22 08:47:00,71.0,70.0,29.69,South,180,8.0,8.0,98,0.00,,,0.00,TxWx,2013-03-22 14:47:00,
2013-03-22 08:48:00,71.0,70.0,29.69,SSE,157,6.0,6.0,98,0.00,,,0.00,TxWx,2013-03-22 14:48:00,
2013-03-22 08:51:00,71.0,70.0,29.70,SSE,157,6.0,6.0,97,0.00,,,0.00,TxWx,2013-03-22 14:51:00,
2013-03-22 08:53:00,72.0,71.0,29.70,SSW,202,6.0,6.0,97,0.00,,,0.00,TxWx,2013-03-22 14:53:00,
2013-03-22 08:54:00,72.0,71.0,29.70,South,180,7.0,7.0,97,0.00,,,0.00,TxWx,2013-03-22 14:54:00,
2013-03-22 08:55:00,71.0,70.0,29.70,SSW,202,9.0,10.0,97,0.00,,,0.00,TxWx,2013-03-22 14:55:00,
2013-03-22 08:57:00,72.0,71.0,29.70,SSE,157,6.0,7.0,97,0.00,,,0.00,TxWx,2013-03-22 14:57:00,
2013-03-22 08:59:00,72.0,71.0,29.70,SSE,157,4.0,5.0,97,0.00,,,0.00,TxWx,2013-03-22 14:59:00,
2013-03-22 09:01:00,72.0,71.0,29.70,SSW,202,8.0,8.0,97,0.00,,,0.00,TxWx,2013-03-22 15:01:00,
2013-03-22 09:04:00,72.0,71.0,29.70,SSW,202,3.0,4.0,97,0.00,,,0.00,TxWx,2013-03-22 15:04:00,
2013-03-22 09:05:00,72.0,71.0,29.70,SSE,157,11.0,11.0,97,0.00,,,0.00,TxWx,2013-03-22 15:05:00,
2013-03-22 09:06:00,72.0,71.0,29.70,South,180,5.0,6.0,97,0.00,,,0.00,TxWx,2013-03-22 15:06:00,
2013-03-22 09:07:00,72.0,71.0,29.70,SSE,157,7.0,7.0,97,0.00,,,0.00,TxWx,2013-03-22 15:07:00,
2013-03-22 09:09:00,72.0,71.0,29.70,SSE,157,8.0,8.0,97,0.00,,,0.00,TxWx,2013-03-22 15:09:00,
2013-03-22 09:11:00,72.0,71.0,29.70,SSW,202,9.0,9.0,97,0.00,,,0.00,TxWx,2013-03-22 15:11:00,
2013-03-22 09:12:00,72.0,71.0,29.70,South,180,6.0,8.0,97,0.00,,,0.00,TxWx,2013-03-22 15:12:00,
2013-03-22 09:13:00,72.0,71.0,29.70,SSW,202,6.0,7.0,97,0.00,,,0.00,TxWx,2013-03-22 15:13:00,
2013-03-22 09:15:00,72.0,71.0,29.70,SSE,157,4.0,4.0,97,0.00,,,0.00,TxWx,2013-03-22 15:15:00,
2013-03-22 09:19:00,72.0,71.0,29.70,SW,225,7.0,7.0,97,0.00,,,0.00,TxWx,2013-03-22 15:19:00,
2013-03-22 09:20:00,72.0,71.0,29.70,South,180,11.0,12.0,97,0.00,,,0.00,TxWx,2013-03-22 15:20:00,
2013-03-22 09:22:00,72.0,71.0,29.71,SSE,157,7.0,8.0,97,0.00,,,0.00,TxWx,2013-03-22 15:22:00,
2013-03-22 09:24:00,72.0,71.0,29.71,SE,135,6.0,6.0,97,0.00,,,0.00,TxWx,2013-03-22 15:24:00,
2013-03-22 09:27:00,72.0,71.0,29.71,SSE,157,4.0,5.0,97,0.00,,,0.00,TxWx,2013-03-22 15:27:00,
2013-03-22 09:30:00,72.0,71.0,29.71,SSE,157,6.0,6.0,97,0.00,,,0.00,TxWx,2013-03-22 15:30:00,
2013-03-22 09:34:00,72.0,71.0,29.71,SSW,202,3.0,3.0,97,0.00,,,0.00,TxWx,2013-03-22 15:34:00,
2013-03-22 09:35:00,72.0,71.0,29.70,SSE,157,7.0,7.0,97,0.00,,,0.00,TxWx,2013-03-22 15:35:00,
2013-03-22 09:36:00,72.0,71.0,29.70,SSW,202,12.0,12.0,97,0.00,,,0.00,TxWx,2013-03-22 15:36:00,
2013-03-22 09:39:00,72.0,71.0,29.71,SSW,202,8.0,8.0,97,0.00,,,0.00,TxWx,2013-03-22 15:39:00,
2013-03-22 09:41:00,72.0,71.0,29.71,SSW,202,6.0,8.0,97,0.00,,,0.00,TxWx,2013-03-22 15:41:00,
2013-03-22 09:45:00,72.0,71.0,29.71,South,180,9.0,9.0,96,0.00,,,0.00,TxWx,2013-03-22 15:45:00,
2013-03-22 09:47:00,72.0,71.0,29.71,SSW,202,7.0,7.0,96,0.00,,,0.00,TxWx,2013-03-22 15:47:00,
2013-03-22 09:50:00,72.0,71.0,29.71,South,180,6.0,6.0,96,0.00,,,0.00,TxWx,2013-03-22 15:50:00,
2013-03-22 09:52:00,72.0,71.0,29.71,SSW,202,6.0,6.0,96,0.00,,,0.00,TxWx,2013-03-22 15:52:00,
2013-03-22 09:54:00,72.0,71.0,29.71,SSE,157,5.0,5.0,96,0.00,,,0.00,TxWx,2013-03-22 15:54:00,
2013-03-22 09:56:00,72.0,71.0,29.71,SSE,157,9.0,9.0,96,0.00,,,0.00,TxWx,2013-03-22 15:56:00,
2013-03-22 09:57:00,72.0,71.0,29.71,South,180,8.0,8.0,96,0.00,,,0.00,TxWx,2013-03-22 15:57:00,
2013-03-22 10:01:00,73.0,72.0,29.71,SSE,157,5.0,5.0,96,0.00,,,0.00,TxWx,2013-03-22 16:01:00,
2013-03-22 10:03:00,73.0,72.0,29.71,South,180,9.0,10.0,96,0.00,,,0.00,TxWx,2013-03-22 16:03:00,
2013-03-22 10:08:00,73.0,72.0,29.71,South,180,5.0,7.0,96,0.00,,,0.00,TxWx,2013-03-22 16:08:00,
2013-03-22 10:09:00,73.0,72.0,29.71,SSW,202,11.0,13.0,96,0.00,,,0.00,TxWx,2013-03-22 16:09:00,
2013-03-22 10:10:00,73.0,72.0,29.71,WSW,247,6.0,6.0,96,0.00,,,0.00,TxWx,2013-03-22 16:10:00,
2013-03-22 10:13:00,73.0,72.0,29.71,SW,225,6.0,6.0,96,0.00,,,0.00,TxWx,2013-03-22 16:13:00,
2013-03-22 10:15:00,73.0,71.0,29.71,SSW,202,9.0,10.0,95,0.00,,,0.00,TxWx,2013-03-22 16:15:00,
2013-03-22 10:18:00,73.0,71.0,29.71,South,180,8.0,8.0,95,0.00,,,0.00,TxWx,2013-03-22 16:18:00,
2013-03-22 10:20:00,73.0,71.0,29.71,SSW,202,10.0,10.0,95,0.00,,,0.00,TxWx,2013-03-22 16:20:00,
2013-03-22 10:22:00,73.0,71.0,29.71,SSW,202,8.0,8.0,95,0.00,,,0.00,TxWx,2013-03-22 16:22:00,
2013-03-22 10:23:00,73.0,71.0,29.71,SSW,202,8.0,8.0,95,0.00,,,0.00,TxWx,2013-03-22 16:23:00,
2013-03-22 10:26:00,73.0,71.0,29.71,SSE,157,5.0,6.0,95,0.00,,,0.00,TxWx,2013-03-22 16:26:00,
2013-03-22 10:27:00,73.0,71.0,29.71,SSW,202,6.0,6.0,95,0.00,,,0.00,TxWx,2013-03-22 16:27:00,
2013-03-22 10:28:00,73.0,71.0,29.71,SSW,202,12.0,13.0,95,0.00,,,0.00,TxWx,2013-03-22 16:28:00,
2013-03-22 10:30:00,73.0,71.0,29.71,SSW,202,5.0,5.0,95,0.00,,,0.00,TxWx,2013-03-22 16:30:00,
2013-03-22 10:31:00,73.0,71.0,29.71,SW,225,6.0,6.0,95,0.00,,,0.00,TxWx,2013-03-22 16:31:00,
2013-03-22 10:33:00,73.0,71.0,29.71,SSW,202,9.0,9.0,95,0.00,,,0.00,TxWx,2013-03-22 16:33:00,
2013-03-22 10:35:00,73.0,71.0,29.71,South,180,7.0,8.0,95,0.00,,,0.00,TxWx,2013-03-22 16:35:00,
2013-03-22 10:36:00,73.0,71.0,29.71,South,180,11.0,11.0,95,0.00,,,0.00,TxWx,2013-03-22 16:36:00,
2013-03-22 10:38:00,73.0,71.0,29.71,SE,135,8.0,8.0,95,0.00,,,0.00,TxWx,2013-03-22 16:38:00,
2013-03-22 10:40:00,73.0,71.0,29.71,SSE,157,7.0,8.0,94,0.00,,,0.00,TxWx,2013-03-22 16:40:00,
2013-03-22 10:41:00,73.0,71.0,29.71,South,180,8.0,10.0,94,0.00,,,0.00,TxWx,2013-03-22 16:41:00,
2013-03-22 10:45:00,73.0,71.0,29.71,SSE,157,8.0,8.0,94,0.00,,,0.00,TxWx,2013-03-22 16:45:00,
2013-03-22 10:46:00,73.0,71.0,29.71,South,180,6.0,6.0,94,0.00,,,0.00,TxWx,2013-03-22 16:46:00,
2013-03-22 10:47:00,73.0,71.0,29.71,South,180,5.0,6.0,94,0.00,,,0.00,TxWx,2013-03-22 16:47:00,
2013-03-22 10:50:00,74.0,72.0,29.71,SSW,202,14.0,14.0,94,0.00,,,0.00,TxWx,2013-03-22 16:50:00,
2013-03-22 10:51:00,74.0,72.0,29.71,SSW,202,11.0,11.0,94,0.00,,,0.00,TxWx,2013-03-22 16:51:00,
2013-03-22 10:52:00,74.0,72.0,29.71,South,180,9.0,11.0,94,0.00,,,0.00,TxWx,2013-03-22 16:52:00,
2013-03-22 10:53:00,73.0,71.0,29.71,South,180,13.0,13.0,94,0.00,,,0.00,TxWx,2013-03-22 16:53:00,
2013-03-22 10:56:00,74.0,72.0,29.71,South,180,6.0,6.0,94,0.00,,,0.00,TxWx,2013-03-22 16:56:00,
2013-03-22 10:57:00,74.0,72.0,29.71,South,180,6.0,6.0,94,0.00,,,0.00,TxWx,2013-03-22 16:57:00,
2013-03-22 10:58:00,74.0,72.0,29.71,SW,225,3.0,3.0,94,0.00,,,0.00,TxWx,2013-03-22 16:58:00,
2013-03-22 10:59:00,74.0,72.0,29.71,South,180,7.0,8.0,94,0.00,,,0.00,TxWx,2013-03-22 16:59:00,
2013-03-22 11:02:00,74.0,72.0,29.71,SSE,157,6.0,6.0,93,0.00,,,0.00,TxWx,2013-03-22 17:02:00,
2013-03-22 11:03:00,74.0,72.0,29.71,SW,225,10.0,10.0,93,0.00,,,0.00,TxWx,2013-03-22 17:03:00,
2013-03-22 11:05:00,74.0,72.0,29.71,SSE,157,8.0,8.0,93,0.00,,,0.00,TxWx,2013-03-22 17:05:00,
2013-03-22 11:06:00,74.0,72.0,29.71,SSE,157,6.0,6.0,93,0.00,,,0.00,TxWx,2013-03-22 17:06:00,
2013-03-22 11:07:00,74.0,72.0,29.70,South,180,11.0,13.0,93,0.00,,,0.00,TxWx,2013-03-22 17:07:00,
2013-03-22 11:10:00,74.0,72.0,29.70,SSE,157,8.0,8.0,93,0.00,,,0.00,TxWx,2013-03-22 17:10:00,
2013-03-22 11:11:00,74.0,72.0,29.70,SW,225,6.0,7.0,93,0.00,,,0.00,TxWx,2013-03-22 17:11:00,
2013-03-22 11:12:00,74.0,72.0,29.70,SSE,157,8.0,8.0,93,0.00,,,0.00,TxWx,2013-03-22 17:12:00,
2013-03-22 11:14:00,74.0,72.0,29.70,SSW,202,6.0,6.0,92,0.00,,,0.00,TxWx,2013-03-22 17:14:00,
2013-03-22 11:17:00,74.0,72.0,29.70,SSW,202,8.0,9.0,92,0.00,,,0.00,TxWx,2013-03-22 17:17:00,
2013-03-22 11:18:00,74.0,72.0,29.70,South,180,9.0,9.0,92,0.00,,,0.00,TxWx,2013-03-22 17:18:00,
2013-03-22 11:19:00,74.0,72.0,29.70,South,180,5.0,8.0,92,0.00,,,0.00,TxWx,2013-03-22 17:19:00,
2013-03-22 11:23:00,74.0,71.0,29.70,South,180,8.0,8.0,92,0.00,,,0.00,TxWx,2013-03-22 17:23:00,
2013-03-22 11:24:00,75.0,72.0,29.70,South,180,12.0,12.0,92,0.00,,,0.00,TxWx,2013-03-22 17:24:00,
2013-03-22 11:25:00,74.0,71.0,29.70,SSW,202,8.0,8.0,92,0.00,,,0.00,TxWx,2013-03-22 17:25:00,
2013-03-22 11:30:00,74.0,71.0,29.70,SSW,202,12.0,13.0,91,0.00,,,0.00,TxWx,2013-03-22 17:30:00,
2013-03-22 11:31:00,74.0,71.0,29.70,South,180,11.0,11.0,91,0.00,,,0.00,TxWx,2013-03-22 17:31:00,
2013-03-22 11:32:00,75.0,72.0,29.70,SSW,202,6.0,6.0,91,0.00,,,0.00,TxWx,2013-03-22 17:32:00,
2013-03-22 11:35:00,75.0,72.0,29.70,SSW,202,8.0,9.0,91,0.00,,,0.00,TxWx,2013-03-22 17:35:00,
2013-03-22 11:36:00,75.0,72.0,29.70,SSW,202,8.0,8.0,91,0.00,,,0.00,TxWx,2013-03-22 17:36:00,
2013-03-22 11:37:00,75.0,72.0,29.70,SSW,202,7.0,7.0,91,0.00,,,0.00,TxWx,2013-03-22 17:37:00,
2013-03-22 11:40:00,74.0,71.0,29.69,South,180,14.0,17.0,91,0.00,,,0.00,TxWx,2013-03-22 17:40:00,
2013-03-22 11:41:00,75.0,72.0,29.69,SSW,202,14.0,14.0,91,0.00,,,0.00,TxWx,2013-03-22 17:41:00,
2013-03-22 11:44:00,75.0,72.0,29.69,South,180,7.0,8.0,91,0.00,,,0.00,TxWx,2013-03-22 17:44:00,
2013-03-22 11:45:00,75.0,72.0,29.69,South,180,7.0,7.0,91,0.00,,,0.00,TxWx,2013-03-22 17:45:00,
2013-03-22 11:46:00,75.0,72.0,29.69,South,180,13.0,13.0,91,0.00,,,0.00,TxWx,2013-03-22 17:46:00,
2013-03-22 11:49:00,75.0,72.0,29.69,SSE,157,8.0,10.0,90,0.00,,,0.00,TxWx,2013-03-22 17:49:00,
2013-03-22 11:51:00,75.0,72.0,29.69,SSE,157,10.0,10.0,90,0.00,,,0.00,TxWx,2013-03-22 17:51:00,
2013-03-22 11:52:00,75.0,72.0,29.69,SSW,202,13.0,14.0,90,0.00,,,0.00,TxWx,2013-03-22 17:52:00,
2013-03-22 11:55:00,75.0,72.0,29.69,SSE,157,11.0,11.0,90,0.00,,,0.00,TxWx,2013-03-22 17:55:00,
2013-03-22 11:57:00,76.0,73.0,29.69,SSE,157,10.0,10.0,90,0.00,,,0.00,TxWx,2013-03-22 17:57:00,
2013-03-22 12:00:00,76.0,73.0,29.69,South,180,8.0,8.0,90,0.00,,,0.00,TxWx,2013-03-22 18:00:00,
2013-03-22 12:03:00,76.0,73.0,29.69,South,180,7.0,7.0,89,0.00,,,0.00,TxWx,2013-03-22 18:03:00,
2013-03-22 12:06:00,75.0,71.0,29.68,SSE,157,8.0,10.0,89,0.00,,,0.00,TxWx,2013-03-22 18:06:00,
2013-03-22 12:08:00,76.0,73.0,29.68,SSE,157,6.0,7.0,89,0.00,,,0.00,TxWx,2013-03-22 18:08:00,
2013-03-22 12:11:00,76.0,72.0,29.68,SSW,202,10.0,12.0,89,0.00,,,0.00,TxWx,2013-03-22 18:11:00,
2013-03-22 12:13:00,76.0,72.0,29.68,SE,135,17.0,17.0,88,0.00,,,0.00,TxWx,2013-03-22 18:13:00,
2013-03-22 12:14:00,76.0,72.0,29.68,ESE,112,8.0,9.0,88,0.00,,,0.00,TxWx,2013-03-22 18:14:00,
2013-03-22 12:17:00,76.0,72.0,29.68,South,180,10.0,10.0,89,0.00,,,0.00,TxWx,2013-03-22 18:17:00,
2013-03-22 12:19:00,76.0,72.0,29.68,SSE,157,9.0,11.0,88,0.00,,,0.00,TxWx,2013-03-22 18:19:00,
2013-03-22 12:21:00,76.0,72.0,29.68,SW,225,7.0,7.0,88,0.00,,,0.00,TxWx,2013-03-22 18:21:00,
2013-03-22 12:22:00,76.0,72.0,29.68,SSW,202,7.0,8.0,88,0.00,,,0.00,TxWx,2013-03-22 18:22:00,
2013-03-22 12:24:00,76.0,72.0,29.68,South,180,6.0,7.0,88,0.00,,,0.00,TxWx,2013-03-22 18:24:00,
2013-03-22 12:26:00,76.0,72.0,29.68,SSW,202,14.0,14.0,88,0.00,,,0.00,TxWx,2013-03-22 18:26:00,
2013-03-22 12:27:00,76.0,72.0,29.67,SE,135,15.0,15.0,88,0.00,,,0.00,TxWx,2013-03-22 18:27:00,
2013-03-22 12:30:00,76.0,72.0,29.68,SSW,202,8.0,8.0,88,0.00,,,0.00,TxWx,2013-03-22 18:30:00,
2013-03-22 12:32:00,76.0,72.0,29.68,SSE,157,5.0,6.0,89,0.00,,,0.00,TxWx,2013-03-22 18:32:00,
2013-03-22 12:33:00,76.0,72.0,29.67,SSW,202,8.0,8.0,88,0.00,,,0.00,TxWx,2013-03-22 18:33:00,
2013-03-22 12:35:00,76.0,72.0,29.67,South,180,7.0,7.0,88,0.00,,,0.00,TxWx,2013-03-22 18:35:00,
2013-03-22 12:36:00,76.0,72.0,29.67,South,180,11.0,11.0,88,0.00,,,0.00,TxWx,2013-03-22 18:36:00,
2013-03-22 12:37:00,76.0,72.0,29.67,South,180,8.0,8.0,88,0.00,,,0.00,TxWx,2013-03-22 18:37:00,
2013-03-22 12:39:00,76.0,72.0,29.67,SE,135,10.0,10.0,88,0.00,,,0.00,TxWx,2013-03-22 18:39:00,
2013-03-22 12:42:00,76.0,72.0,29.67,South,180,10.0,11.0,88,0.00,,,0.00,TxWx,2013-03-22 18:42:00,
2013-03-22 12:43:00,76.0,72.0,29.67,SE,135,13.0,14.0,88,0.00,,,0.00,TxWx,2013-03-22 18:43:00,
2013-03-22 12:46:00,76.0,72.0,29.67,SSW,202,8.0,8.0,88,0.00,,,0.00,TxWx,2013-03-22 18:46:00,
2013-03-22 12:48:00,76.0,72.0,29.66,SSE,157,6.0,6.0,88,0.00,,,0.00,TxWx,2013-03-22 18:48:00,
2013-03-22 12:51:00,76.0,72.0,29.66,SSW,202,13.0,13.0,87,0.00,,,0.00,TxWx,2013-03-22 18:51:00,
2013-03-22 12:53:00,76.0,72.0,29.66,SE,135,11.0,11.0,87,0.00,,,0.00,TxWx,2013-03-22 18:53:00,
2013-03-22 12:54:00,76.0,72.0,29.66,SE,135,10.0,10.0,87,0.00,,,0.00,TxWx,2013-03-22 18:54:00,
2013-03-22 12:56:00,76.0,72.0,29.66,SSE,157,10.0,11.0,87,0.00,,,0.00,TxWx,2013-03-22 18:56:00,
2013-03-22 12:59:00,76.0,72.0,29.66,SSW,202,7.0,9.0,87,0.00,,,0.00,TxWx,2013-03-22 18:59:00,
2013-03-22 13:02:00,76.0,72.0,29.66,South,180,9.0,10.0,87,0.00,,,0.00,TxWx,2013-03-22 19:02:00,
2013-03-22 13:04:00,76.0,72.0,29.66,SSE,157,11.0,12.0,87,0.00,,,0.00,TxWx,2013-03-22 19:04:00,
2013-03-22 13:05:00,76.0,72.0,29.66,SSE,157,11.0,11.0,87,0.00,,,0.00,TxWx,2013-03-22 19:05:00,
2013-03-22 13:08:00,76.0,72.0,29.65,SE,135,10.0,10.0,87,0.00,,,0.00,TxWx,2013-03-22 19:08:00,
2013-03-22 13:10:00,76.0,72.0,29.65,SE,135,6.0,6.0,87,0.00,,,0.00,TxWx,2013-03-22 19:10:00,
2013-03-22 13:12:00,76.0,72.0,29.65,SSE,157,8.0,9.0,87,0.00,,,0.00,TxWx,2013-03-22 19:12:00,
2013-03-22 13:14:00,76.0,72.0,29.65,SSE,157,10.0,11.0,88,0.00,,,0.00,TxWx,2013-03-22 19:14:00,
2013-03-22 13:15:00,76.0,72.0,29.65,SSE,157,13.0,13.0,87,0.00,,,0.00,TxWx,2013-03-22 19:15:00,
2013-03-22 13:16:00,76.0,72.0,29.65,SSE,157,6.0,7.0,88,0.00,,,0.00,TxWx,2013-03-22 19:16:00,
2013-03-22 13:17:00,75.0,71.0,29.65,SSE,157,10.0,11.0,87,0.00,,,0.00,TxWx,2013-03-22 19:17:00,
2013-03-22 13:20:00,75.0,71.0,29.65,ESE,112,6.0,6.0,88,0.00,,,0.00,TxWx,2013-03-22 19:20:00,
2013-03-22 13:22:00,76.0,72.0,29.65,SE,135,9.0,11.0,88,0.00,,,0.00,TxWx,2013-03-22 19:22:00,
2013-03-22 13:23:00,75.0,71.0,29.65,SSE,157,13.0,13.0,88,0.00,,,0.00,TxWx,2013-03-22 19:23:00,
2013-03-22 13:25:00,76.0,72.0,29.65,SSE,157,7.0,8.0,88,0.00,,,0.00,TxWx,2013-03-22 19:25:00,
2013-03-22 13:27:00,76.0,72.0,29.65,SSW,202,8.0,9.0,88,0.00,,,0.00,TxWx,2013-03-22 19:27:00,
2013-03-22 13:29:00,75.0,71.0,29.65,SSW,202,11.0,13.0,88,0.00,,,0.00,TxWx,2013-03-22 19:29:00,
2013-03-22 13:32:00,76.0,72.0,29.65,SSE,157,9.0,9.0,88,0.00,,,0.00,TxWx,2013-03-22 19:32:00,
2013-03-22 13:34:00,76.0,72.0,29.65,SSE,157,11.0,11.0,88,0.00,,,0.00,TxWx,2013-03-22 19:34:00,
2013-03-22 13:35:00,76.0,72.0,29.65,SSW,202,5.0,6.0,88,0.00,,,0.00,TxWx,2013-03-22 19:35:00,
2013-03-22 13:37:00,76.0,72.0,29.65,SSW,202,6.0,6.0,88,0.00,,,0.00,TxWx,2013-03-22 19:37:00,
2013-03-22 13:38:00,76.0,72.0,29.65,SSW,202,8.0,10.0,88,0.00,,,0.00,TxWx,2013-03-22 19:38:00,
2013-03-22 13:40:00,76.0,72.0,29.65,South,180,12.0,12.0,88,0.00,,,0.00,TxWx,2013-03-22 19:40:00,
2013-03-22 13:41:00,76.0,72.0,29.65,South,180,10.0,13.0,88,0.00,,,0.00,TxWx,2013-03-22 19:41:00,
2013-03-22 13:43:00,75.0,71.0,29.64,SE,135,11.0,14.0,88,0.00,,,0.00,TxWx,2013-03-22 19:43:00,
2013-03-22 13:45:00,75.0,71.0,29.64,South,180,13.0,13.0,89,0.00,,,0.00,TxWx,2013-03-22 19:45:00,
2013-03-22 13:46:00,75.0,71.0,29.64,South,180,8.0,8.0,89,0.00,,,0.00,TxWx,2013-03-22 19:46:00,
2013-03-22 13:48:00,76.0,73.0,29.64,South,180,6.0,6.0,89,0.00,,,0.00,TxWx,2013-03-22 19:48:00,
2013-03-22 13:51:00,76.0,73.0,29.64,SSE,157,8.0,10.0,89,0.00,,,0.00,TxWx,2013-03-22 19:51:00,
2013-03-22 13:52:00,76.0,72.0,29.64,SSW,202,10.0,10.0,89,0.00,,,0.00,TxWx,2013-03-22 19:52:00,
2013-03-22 13:53:00,76.0,72.0,29.64,ESE,112,5.0,8.0,89,0.00,,,0.00,TxWx,2013-03-22 19:53:00,
2013-03-22 13:56:00,76.0,72.0,29.64,South,180,10.0,10.0,88,0.00,,,0.00,TxWx,2013-03-22 19:56:00,
2013-03-22 13:57:00,76.0,72.0,29.64,SSE,157,8.0,9.0,88,0.00,,,0.00,TxWx,2013-03-22 19:57:00,
2013-03-22 13:58:00,76.0,72.0,29.64,SW,225,6.0,8.0,88,0.00,,,0.00,TxWx,2013-03-22 19:58:00,
2013-03-22 14:01:00,76.0,72.0,29.63,SSE,157,8.0,8.0,88,0.00,,,0.00,TxWx,2013-03-22 20:01:00,
2013-03-22 14:03:00,76.0,72.0,29.63,South,180,5.0,6.0,88,0.00,,,0.00,TxWx,2013-03-22 20:03:00,
2013-03-22 14:04:00,76.0,72.0,29.63,SSW,202,8.0,10.0,88,0.00,,,0.00,TxWx,2013-03-22 20:04:00,
2013-03-22 14:08:00,76.0,72.0,29.63,SW,225,11.0,11.0,88,0.00,,,0.00,TxWx,2013-03-22 20:08:00,
2013-03-22 14:09:00,76.0,72.0,29.63,SSW,202,13.0,13.0,88,0.00,,,0.00,TxWx,2013-03-22 20:09:00,
2013-03-22 14:10:00,76.0,72.0,29.63,SSE,157,14.0,14.0,88,0.00,,,0.00,TxWx,2013-03-22 20:10:00,
2013-03-22 14:13:00,76.0,72.0,29.63,SSE,157,8.0,8.0,88,0.00,,,0.00,TxWx,2013-03-22 20:13:00,
2013-03-22 14:15:00,76.0,72.0,29.63,SSE,157,12.0,12.0,88,0.00,,,0.00,TxWx,2013-03-22 20:15:00,
2013-03-22 14:16:00,76.0,72.0,29.63,South,180,8.0,11.0,88,0.00,,,0.00,TxWx,2013-03-22 20:16:00,
2013-03-22 14:20:00,76.0,72.0,29.63,South,180,16.0,16.0,88,0.00,,,0.00,TxWx,2013-03-22 20:20:00,
2013-03-22 14:21:00,76.0,72.0,29.63,SSW,202,9.0,9.0,88,0.00,,,0.00,TxWx,2013-03-22 20:21:00,
2013-03-22 14:22:00,76.0,72.0,29.63,SSW,202,14.0,15.0,89,0.00,,,0.00,TxWx,2013-03-22 20:22:00,
2013-03-22 14:23:00,76.0,72.0,29.63,SSW,202,10.0,10.0,88,0.00,,,0.00,TxWx,2013-03-22 20:23:00,
2013-03-22 14:25:00,77.0,73.0,29.63,South,180,14.0,14.0,87,0.00,,,0.00,TxWx,2013-03-22 20:25:00,
2013-03-22 14:27:00,77.0,73.0,29.63,WSW,247,7.0,7.0,87,0.00,,,0.00,TxWx,2013-03-22 20:27:00,
2013-03-22 14:28:00,77.0,73.0,29.62,SSW,202,10.0,10.0,87,0.00,,,0.00,TxWx,2013-03-22 20:28:00,
2013-03-22 14:32:00,77.0,72.0,29.62,SSE,157,14.0,15.0,86,0.00,,,0.00,TxWx,2013-03-22 20:32:00,
2013-03-22 14:34:00,77.0,72.0,29.63,SSE,157,9.0,9.0,86,0.00,,,0.00,TxWx,2013-03-22 20:34:00,
2013-03-22 14:35:00,77.0,72.0,29.62,SSE,157,10.0,10.0,86,0.00,,,0.00,TxWx,2013-03-22 20:35:00,
2013-03-22 14:36:00,77.0,72.0,29.62,SSE,157,8.0,8.0,86,0.00,,,0.00,TxWx,2013-03-22 20:36:00,
2013-03-22 14:38:00,77.0,72.0,29.62,South,180,16.0,16.0,85,0.00,,,0.00,TxWx,2013-03-22 20:38:00,
2013-03-22 14:39:00,77.0,72.0,29.62,SSW,202,9.0,9.0,85,0.00,,,0.00,TxWx,2013-03-22 20:39:00,
2013-03-22 14:40:00,77.0,72.0,29.62,SSE,157,7.0,8.0,85,0.00,,,0.00,TxWx,2013-03-22 20:40:00,
2013-03-22 14:43:00,77.0,72.0,29.62,SSW,202,13.0,13.0,86,0.00,,,0.00,TxWx,2013-03-22 20:43:00,
2013-03-22 14:44:00,77.0,72.0,29.62,SSE,157,8.0,11.0,85,0.00,,,0.00,TxWx,2013-03-22 20:44:00,
2013-03-22 14:45:00,77.0,72.0,29.62,SSW,202,7.0,8.0,85,0.00,,,0.00,TxWx,2013-03-22 20:45:00,
2013-03-22 14:49:00,77.0,72.0,29.62,SSE,157,6.0,6.0,85,0.00,,,0.00,TxWx,2013-03-22 20:49:00,
2013-03-22 14:50:00,77.0,72.0,29.62,SSE,157,6.0,6.0,85,0.00,,,0.00,TxWx,2013-03-22 20:50:00,
2013-03-22 14:54:00,76.0,72.0,29.62,SSE,157,13.0,13.0,85,0.00,,,0.00,TxWx,2013-03-22 20:54:00,
2013-03-22 14:56:00,77.0,72.0,29.62,SSE,157,8.0,8.0,86,0.00,,,0.00,TxWx,2013-03-22 20:56:00,
2013-03-22 14:57:00,77.0,72.0,29.62,SE,135,16.0,17.0,86,0.00,,,0.00,TxWx,2013-03-22 20:57:00,
2013-03-22 15:00:00,77.0,72.0,29.62,South,180,10.0,11.0,86,0.00,,,0.00,TxWx,2013-03-22 21:00:00,
2013-03-22 15:02:00,76.0,71.0,29.62,SSE,157,10.0,10.0,86,0.00,,,0.00,TxWx,2013-03-22 21:02:00,
2013-03-22 15:03:00,76.0,71.0,29.62,SSE,157,11.0,11.0,86,0.00,,,0.00,TxWx,2013-03-22 21:03:00,
2013-03-22 15:04:00,76.0,71.0,29.62,SE,135,10.0,10.0,86,0.00,,,0.00,TxWx,2013-03-22 21:04:00,
2013-03-22 15:06:00,76.0,71.0,29.62,SE,135,10.0,11.0,86,0.00,,,0.00,TxWx,2013-03-22 21:06:00,
2013-03-22 15:08:00,77.0,72.0,29.62,SSE,157,11.0,13.0,86,0.00,,,0.00,TxWx,2013-03-22 21:08:00,
2013-03-22 15:09:00,77.0,72.0,29.62,South,180,10.0,10.0,86,0.00,,,0.00,TxWx,2013-03-22 21:09:00,
2013-03-22 15:11:00,77.0,72.0,29.62,South,180,16.0,16.0,86,0.00,,,0.00,TxWx,2013-03-22 21:11:00,
2013-03-22 15:14:00,77.0,72.0,29.62,SSW,202,10.0,10.0,85,0.00,,,0.00,TxWx,2013-03-22 21:14:00,
2013-03-22 15:18:00,78.0,73.0,29.62,South,180,10.0,10.0,85,0.00,,,0.00,TxWx,2013-03-22 21:18:00,
2013-03-22 15:19:00,77.0,72.0,29.62,SSE,157,9.0,9.0,85,0.00,,,0.00,TxWx,2013-03-22 21:19:00,
2013-03-22 15:20:00,77.0,72.0,29.62,SSE,157,9.0,9.0,85,0.00,,,0.00,TxWx,2013-03-22 21:20:00,
2013-03-22 15:24:00,78.0,73.0,29.62,SSE,157,7.0,7.0,85,0.00,,,0.00,TxWx,2013-03-22 21:24:00,
2013-03-22 15:25:00,77.0,72.0,29.62,ESE,112,10.0,11.0,85,0.00,,,0.00,TxWx,2013-03-22 21:25:00,
2013-03-22 15:30:00,77.0,72.0,29.62,SSE,157,7.0,8.0,84,0.00,,,0.00,TxWx,2013-03-22 21:30:00,
2013-03-22 15:31:00,77.0,72.0,29.62,South,180,13.0,13.0,84,0.00,,,0.00,TxWx,2013-03-22 21:31:00,
2013-03-22 15:32:00,77.0,72.0,29.62,SSE,157,11.0,12.0,84,0.00,,,0.00,TxWx,2013-03-22 21:32:00,
2013-03-22 15:36:00,78.0,73.0,29.62,SW,225,6.0,6.0,84,0.00,,,0.00,TxWx,2013-03-22 21:36:00,
2013-03-22 15:37:00,78.0,72.0,29.62,SSW,202,10.0,11.0,83,0.00,,,0.00,TxWx,2013-03-22 21:37:00,
2013-03-22 15:41:00,78.0,72.0,29.62,SE,135,4.0,5.0,82,0.00,,,0.00,TxWx,2013-03-22 21:41:00,
2013-03-22 15:42:00,79.0,73.0,29.62,ESE,112,6.0,6.0,83,0.00,,,0.00,TxWx,2013-03-22 21:42:00,
2013-03-22 15:47:00,78.0,72.0,29.62,SE,135,11.0,11.0,81,0.00,,,0.00,TxWx,2013-03-22 21:47:00,
2013-03-22 15:48:00,78.0,72.0,29.62,SSE,157,14.0,14.0,81,0.00,,,0.00,TxWx,2013-03-22 21:48:00,
2013-03-22 15:51:00,77.0,71.0,29.62,SE,135,10.0,11.0,82,0.00,,,0.00,TxWx,2013-03-22 21:51:00,
2013-03-22 15:53:00,77.0,71.0,29.62,SSE,157,13.0,14.0,82,0.00,,,0.00,TxWx,2013-03-22 21:53:00,
2013-03-22 15:54:00,77.0,71.0,29.62,SSE,157,13.0,13.0,82,0.00,,,0.00,TxWx,2013-03-22 21:54:00,
2013-03-22 15:56:00,77.0,71.0,29.62,SE,135,10.0,10.0,83,0.00,,,0.00,TxWx,2013-03-22 21:56:00,
2013-03-22 15:58:00,77.0,71.0,29.62,SE,135,12.0,13.0,83,0.00,,,0.00,TxWx,2013-03-22 21:58:00,
2013-03-22 15:59:00,77.0,71.0,29.62,SSE,157,12.0,13.0,83,0.00,,,0.00,TxWx,2013-03-22 21:59:00,
2013-03-22 16:04:00,77.0,72.0,29.62,SE,135,11.0,11.0,84,0.00,,,0.00,TxWx,2013-03-22 22:04:00,
2013-03-22 16:06:00,77.0,72.0,29.62,SE,135,7.0,10.0,84,0.00,,,0.00,TxWx,2013-03-22 22:06:00,
2013-03-22 16:08:00,77.0,72.0,29.62,SSE,157,11.0,12.0,84,0.00,,,0.00,TxWx,2013-03-22 22:08:00,
2013-03-22 16:10:00,77.0,72.0,29.62,SSE,157,12.0,14.0,84,0.00,,,0.00,TxWx,2013-03-22 22:10:00,
2013-03-22 16:14:00,77.0,72.0,29.61,SE,135,8.0,8.0,85,0.00,,,0.00,TxWx,2013-03-22 22:14:00,
2013-03-22 16:15:00,77.0,72.0,29.61,SSE,157,9.0,11.0,85,0.00,,,0.00,TxWx,2013-03-22 22:15:00,
2013-03-22 16:16:00,77.0,72.0,29.61,SE,135,7.0,8.0,85,0.00,,,0.00,TxWx,2013-03-22 22:16:00,
2013-03-22 16:19:00,77.0,72.0,29.62,SSE,157,11.0,11.0,84,0.00,,,0.00,TxWx,2013-03-22 22:19:00,
2013-03-22 16:20:00,77.0,72.0,29.61,SSE,157,7.0,10.0,84,0.00,,,0.00,TxWx,2013-03-22 22:20:00,
2013-03-22 16:22:00,77.0,72.0,29.61,SSE,157,8.0,9.0,84,0.00,,,0.00,TxWx,2013-03-22 22:22:00,
2013-03-22 16:24:00,77.0,72.0,29.62,SSW,202,7.0,8.0,84,0.00,,,0.00,TxWx,2013-03-22 22:24:00,
2013-03-22 16:26:00,77.0,72.0,29.62,SSW,202,11.0,11.0,84,0.00,,,0.00,TxWx,2013-03-22 22:26:00,
2013-03-22 16:27:00,77.0,72.0,29.62,SE,135,6.0,6.0,84,0.00,,,0.00,TxWx,2013-03-22 22:27:00,
2013-03-22 16:28:00,77.0,72.0,29.62,SSW,202,10.0,10.0,84,0.00,,,0.00,TxWx,2013-03-22 22:28:00,
2013-03-22 16:29:00,77.0,72.0,29.62,South,180,8.0,8.0,85,0.00,,,0.00,TxWx,2013-03-22 22:29:00,
2013-03-22 16:32:00,77.0,72.0,29.62,South,180,6.0,7.0,85,0.00,,,0.00,TxWx,2013-03-22 22:32:00,
2013-03-22 16:34:00,76.0,71.0,29.62,SE,135,9.0,9.0,84,0.00,,,0.00,TxWx,2013-03-22 22:34:00,
2013-03-22 16:37:00,76.0,71.0,29.62,SE,135,5.0,5.0,85,0.00,,,0.00,TxWx,2013-03-22 22:37:00,
2013-03-22 16:40:00,76.0,71.0,29.62,SSE,157,8.0,8.0,85,0.00,,,0.00,TxWx,2013-03-22 22:40:00,
2013-03-22 16:42:00,76.0,71.0,29.62,SSE,157,5.0,5.0,86,0.00,,,0.00,TxWx,2013-03-22 22:42:00,
2013-03-22 16:44:00,76.0,71.0,29.62,SSE,157,11.0,14.0,85,0.00,,,0.00,TxWx,2013-03-22 22:44:00,
2013-03-22 16:47:00,76.0,71.0,29.62,SSE,157,6.0,6.0,86,0.00,,,0.00,TxWx,2013-03-22 22:47:00,
2013-03-22 16:48:00,75.0,70.0,29.62,SSE,157,8.0,8.0,86,0.00,,,0.00,TxWx,2013-03-22 22:48:00,
2013-03-22 16:49:00,76.0,71.0,29.62,South,180,10.0,10.0,86,0.00,,,0.00,TxWx,2013-03-22 22:49:00,
2013-03-22 16:52:00,75.0,71.0,29.62,SSW,202,11.0,11.0,86,0.00,,,0.00,TxWx,2013-03-22 22:52:00,
2013-03-22 16:53:00,76.0,71.0,29.62,South,180,8.0,8.0,86,0.00,,,0.00,TxWx,2013-03-22 22:53:00,
2013-03-22 16:55:00,76.0,71.0,29.62,SSE,157,11.0,11.0,86,0.00,,,0.00,TxWx,2013-03-22 22:55:00,
2013-03-22 16:56:00,76.0,72.0,29.62,SW,225,9.0,11.0,87,0.00,,,0.00,TxWx,2013-03-22 22:56:00,
2013-03-22 16:57:00,76.0,72.0,29.62,South,180,5.0,6.0,87,0.00,,,0.00,TxWx,2013-03-22 22:57:00,
2013-03-22 16:58:00,76.0,72.0,29.62,SE,135,12.0,12.0,87,0.00,,,0.00,TxWx,2013-03-22 22:58:00,
2013-03-22 17:01:00,76.0,72.0,29.62,SSW,202,6.0,7.0,87,0.00,,,0.00,TxWx,2013-03-22 23:01:00,
2013-03-22 17:03:00,75.0,71.0,29.62,SE,135,6.0,7.0,87,0.00,,,0.00,TxWx,2013-03-22 23:03:00,
2013-03-22 17:05:00,75.0,71.0,29.62,SSE,157,5.0,5.0,87,0.00,,,0.00,TxWx,2013-03-22 23:05:00,
2013-03-22 17:06:00,75.0,71.0,29.62,SE,135,9.0,10.0,87,0.00,,,0.00,TxWx,2013-03-22 23:06:00,
2013-03-22 17:08:00,75.0,71.0,29.62,SE,135,10.0,10.0,87,0.00,,,0.00,TxWx,2013-03-22 23:08:00,
2013-03-22 17:12:00,75.0,71.0,29.62,SSE,157,13.0,13.0,88,0.00,,,0.00,TxWx,2013-03-22 23:12:00,
2013-03-22 17:13:00,75.0,71.0,29.62,South,180,13.0,13.0,88,0.00,,,0.00,TxWx,2013-03-22 23:13:00,
2013-03-22 17:16:00,75.0,71.0,29.62,South,180,6.0,7.0,89,0.00,,,0.00,TxWx,2013-03-22 23:16:00,
2013-03-22 17:18:00,75.0,71.0,29.62,ESE,112,9.0,9.0,88,0.00,,,0.00,TxWx,2013-03-22 23:18:00,
2013-03-22 17:22:00,75.0,71.0,29.62,South,180,8.0,11.0,89,0.00,,,0.00,TxWx,2013-03-22 23:22:00,
2013-03-22 17:23:00,75.0,71.0,29.62,SSE,157,10.0,10.0,89,0.00,,,0.00,TxWx,2013-03-22 23:23:00,
2013-03-22 17:27:00,75.0,71.0,29.62,SSE,157,14.0,14.0,89,0.00,,,0.00,TxWx,2013-03-22 23:27:00,
2013-03-22 17:29:00,74.0,71.0,29.62,SSE,157,13.0,13.0,89,0.00,,,0.00,TxWx,2013-03-22 23:29:00,
2013-03-22 17:31:00,74.0,71.0,29.62,South,180,9.0,10.0,90,0.00,,,0.00,TxWx,2013-03-22 23:31:00,
2013-03-22 17:32:00,74.0,71.0,29.62,SSE,157,13.0,14.0,90,0.00,,,0.00,TxWx,2013-03-22 23:32:00,
2013-03-22 17:33:00,74.0,71.0,29.62,SSE,157,9.0,9.0,90,0.00,,,0.00,TxWx,2013-03-22 23:33:00,
2013-03-22 17:36:00,74.0,71.0,29.62,SSW,202,8.0,8.0,90,0.00,,,0.00,TxWx,2013-03-22 23:36:00,
2013-03-22 17:39:00,74.0,71.0,29.62,SE,135,11.0,11.0,90,0.00,,,0.00,TxWx,2013-03-22 23:39:00,
2013-03-22 17:40:00,74.0,71.0,29.63,SSE,157,10.0,11.0,90,0.00,,,0.00,TxWx,2013-03-22 23:40:00,
2013-03-22 17:41:00,74.0,71.0,29.62,ESE,112,7.0,8.0,91,0.00,,,0.00,TxWx,2013-03-22 23:41:00,
2013-03-22 17:44:00,74.0,71.0,29.62,South,180,7.0,7.0,91,0.00,,,0.00,TxWx,2013-03-22 23:44:00,
2013-03-22 17:45:00,74.0,71.0,29.62,SE,135,7.0,7.0,91,0.00,,,0.00,TxWx,2013-03-22 23:45:00,
2013-03-22 17:47:00,74.0,71.0,29.63,SSE,157,8.0,8.0,91,0.00,,,0.00,TxWx,2013-03-22 23:47:00,
2013-03-22 17:49:00,74.0,71.0,29.63,SSE,157,5.0,5.0,91,0.00,,,0.00,TxWx,2013-03-22 23:49:00,
2013-03-22 17:53:00,74.0,71.0,29.62,SE,135,8.0,11.0,92,0.00,,,0.00,TxWx,2013-03-22 23:53:00,
2013-03-22 17:54:00,74.0,71.0,29.62,SSE,157,10.0,10.0,92,0.00,,,0.00,TxWx,2013-03-22 23:54:00,
2013-03-22 17:55:00,74.0,71.0,29.62,SSW,202,6.0,6.0,92,0.00,,,0.00,TxWx,2013-03-22 23:55:00,
2013-03-22 17:58:00,74.0,72.0,29.62,SSE,157,6.0,7.0,92,0.00,,,0.00,TxWx,2013-03-22 23:58:00,
2013-03-22 17:59:00,74.0,72.0,29.62,SSE,157,6.0,6.0,92,0.00,,,0.00,TxWx,2013-03-22 23:59:00,
2013-03-22 18:00:00,74.0,72.0,29.62,South,180,11.0,11.0,92,0.00,,,0.00,TxWx,2013-03-23 00:00:00,
2013-03-22 18:03:00,74.0,72.0,29.62,SSE,157,10.0,11.0,92,0.00,,,0.00,TxWx,2013-03-23 00:03:00,
2013-03-22 18:05:00,74.0,72.0,29.63,SE,135,9.0,10.0,93,0.00,,,0.00,TxWx,2013-03-23 00:05:00,
2013-03-22 18:06:00,74.0,72.0,29.62,SSE,157,8.0,8.0,93,0.00,,,0.00,TxWx,2013-03-23 00:06:00,
2013-03-22 18:09:00,73.0,71.0,29.62,SSE,157,7.0,8.0,93,0.00,,,0.00,TxWx,2013-03-23 00:09:00,
2013-03-22 18:11:00,73.0,71.0,29.62,SE,135,6.0,6.0,93,0.00,,,0.00,TxWx,2013-03-23 00:11:00,
2013-03-22 18:12:00,73.0,71.0,29.63,SSE,157,12.0,12.0,93,0.00,,,0.00,TxWx,2013-03-23 00:12:00,
2013-03-22 18:14:00,73.0,71.0,29.62,East,90,4.0,5.0,93,0.00,,,0.00,TxWx,2013-03-23 00:14:00,
2013-03-22 18:17:00,73.0,71.0,29.63,SSE,157,6.0,8.0,93,0.00,,,0.00,TxWx,2013-03-23 00:17:00,
2013-03-22 18:19:00,73.0,71.0,29.63,SE,135,8.0,8.0,93,0.00,,,0.00,TxWx,2013-03-23 00:19:00,
2013-03-22 18:20:00,73.0,71.0,29.63,South,180,5.0,5.0,93,0.00,,,0.00,TxWx,2013-03-23 00:20:00,
2013-03-22 18:23:00,73.0,71.0,29.63,SSW,202,8.0,10.0,94,0.00,,,0.00,TxWx,2013-03-23 00:23:00,
2013-03-22 18:24:00,73.0,71.0,29.63,SSE,157,8.0,10.0,94,0.00,,,0.00,TxWx,2013-03-23 00:24:00,
2013-03-22 18:27:00,73.0,71.0,29.63,SE,135,5.0,6.0,94,0.00,,,0.00,TxWx,2013-03-23 00:27:00,
2013-03-22 18:28:00,73.0,71.0,29.63,SE,135,6.0,8.0,94,0.00,,,0.00,TxWx,2013-03-23 00:28:00,
2013-03-22 18:30:00,73.0,71.0,29.63,SSE,157,6.0,6.0,94,0.00,,,0.00,TxWx,2013-03-23 00:30:00,
2013-03-22 18:32:00,73.0,71.0,29.63,South,180,6.0,6.0,94,0.00,,,0.00,TxWx,2013-03-23 00:32:00,
2013-03-22 18:34:00,73.0,71.0,29.63,SE,135,7.0,10.0,94,0.00,,,0.00,TxWx,2013-03-23 00:34:00,
2013-03-22 18:35:00,73.0,71.0,29.63,SE,135,13.0,13.0,95,0.00,,,0.00,TxWx,2013-03-23 00:35:00,
2013-03-22 18:37:00,73.0,71.0,29.63,SSE,157,11.0,11.0,95,0.00,,,0.00,TxWx,2013-03-23 00:37:00,
2013-03-22 18:40:00,73.0,71.0,29.63,SSE,157,6.0,8.0,95,0.00,,,0.00,TxWx,2013-03-23 00:40:00,
2013-03-22 18:41:00,73.0,71.0,29.63,SSE,157,10.0,10.0,95,0.00,,,0.00,TxWx,2013-03-23 00:41:00,
2013-03-22 18:42:00,73.0,71.0,29.63,SSW,202,7.0,8.0,95,0.00,,,0.00,TxWx,2013-03-23 00:42:00,
2013-03-22 18:43:00,73.0,71.0,29.63,SSE,157,6.0,6.0,95,0.00,,,0.00,TxWx,2013-03-23 00:43:00,
2013-03-22 18:46:00,73.0,72.0,29.63,SSE,157,6.0,6.0,96,0.00,,,0.00,TxWx,2013-03-23 00:46:00,
2013-03-22 18:47:00,73.0,72.0,29.63,SSE,157,6.0,6.0,96,0.00,,,0.00,TxWx,2013-03-23 00:47:00,
2013-03-22 18:48:00,73.0,72.0,29.63,SSE,157,7.0,7.0,96,0.00,,,0.00,TxWx,2013-03-23 00:48:00,
2013-03-22 18:51:00,73.0,72.0,29.64,ESE,112,3.0,4.0,96,0.00,,,0.00,TxWx,2013-03-23 00:51:00,
2013-03-22 18:52:00,73.0,72.0,29.64,SE,135,6.0,6.0,96,0.00,,,0.00,TxWx,2013-03-23 00:52:00,
2013-03-22 18:53:00,73.0,72.0,29.64,SSE,157,6.0,6.0,96,0.00,,,0.00,TxWx,2013-03-23 00:53:00,
2013-03-22 18:57:00,72.0,71.0,29.64,South,180,7.0,7.0,96,0.00,,,0.00,TxWx,2013-03-23 00:57:00,
2013-03-22 18:58:00,72.0,71.0,29.65,SE,135,7.0,7.0,96,0.00,,,0.00,TxWx,2013-03-23 00:58:00,
2013-03-22 19:00:00,72.0,71.0,29.64,ESE,112,6.0,6.0,96,0.00,,,0.00,TxWx,2013-03-23 01:00:00,
2013-03-22 19:02:00,72.0,71.0,29.64,SE,135,7.0,7.0,96,0.00,,,0.00,TxWx,2013-03-23 01:02:00,
2013-03-22 19:04:00,72.0,71.0,29.64,SE,135,8.0,8.0,96,0.00,,,0.00,TxWx,2013-03-23 01:04:00,
2013-03-22 19:06:00,72.0,71.0,29.64,SSE,157,8.0,8.0,96,0.00,,,0.00,TxWx,2013-03-23 01:06:00,
2013-03-22 19:10:00,72.0,71.0,29.65,SSE,157,10.0,10.0,97,0.00,,,0.00,TxWx,2013-03-23 01:10:00,
2013-03-22 19:11:00,72.0,71.0,29.64,SE,135,8.0,8.0,97,0.00,,,0.00,TxWx,2013-03-23 01:11:00,
2013-03-22 19:16:00,72.0,71.0,29.65,SSE,157,7.0,8.0,97,0.00,,,0.00,TxWx,2013-03-23 01:16:00,
2013-03-22 19:17:00,72.0,71.0,29.65,SE,135,10.0,10.0,97,0.00,,,0.00,TxWx,2013-03-23 01:17:00,
2013-03-22 19:22:00,72.0,71.0,29.65,SE,135,7.0,7.0,97,0.00,,,0.00,TxWx,2013-03-23 01:22:00,
2013-03-22 19:23:00,72.0,71.0,29.65,SE,135,6.0,7.0,97,0.00,,,0.00,TxWx,2013-03-23 01:23:00,
2013-03-22 19:27:00,72.0,71.0,29.65,ESE,112,6.0,6.0,97,0.00,,,0.00,TxWx,2013-03-23 01:27:00,
2013-03-22 19:28:00,72.0,71.0,29.65,ESE,112,9.0,9.0,98,0.00,,,0.00,TxWx,2013-03-23 01:28:00,
2013-03-22 19:32:00,72.0,71.0,29.65,SE,135,8.0,9.0,98,0.00,,,0.00,TxWx,2013-03-23 01:32:00,
2013-03-22 19:33:00,72.0,71.0,29.65,SE,135,10.0,10.0,98,0.00,,,0.00,TxWx,2013-03-23 01:33:00,
2013-03-22 19:38:00,72.0,71.0,29.65,SE,135,6.0,6.0,98,0.00,,,0.00,TxWx,2013-03-23 01:38:00,
2013-03-22 19:39:00,72.0,71.0,29.65,SSE,157,7.0,8.0,98,0.00,,,0.00,TxWx,2013-03-23 01:39:00,
2013-03-22 19:44:00,72.0,71.0,29.65,SE,135,6.0,8.0,98,0.00,,,0.00,TxWx,2013-03-23 01:44:00,
2013-03-22 19:45:00,72.0,71.0,29.65,SSW,202,8.0,8.0,98,0.00,,,0.00,TxWx,2013-03-23 01:45:00,
2013-03-22 19:48:00,72.0,71.0,29.65,SE,135,4.0,4.0,98,0.00,,,0.00,TxWx,2013-03-23 01:48:00,
2013-03-22 19:50:00,72.0,71.0,29.65,SE,135,9.0,10.0,98,0.00,,,0.00,TxWx,2013-03-23 01:50:00,
2013-03-22 19:51:00,72.0,71.0,29.65,SE,135,8.0,8.0,98,0.00,,,0.00,TxWx,2013-03-23 01:51:00,
2013-03-22 19:54:00,72.0,71.0,29.65,SE,135,6.0,7.0,98,0.00,,,0.00,TxWx,2013-03-23 01:54:00,
2013-03-22 19:56:00,72.0,71.0,29.65,SE,135,5.0,6.0,98,0.00,,,0.00,TxWx,2013-03-23 01:56:00,
2013-03-22 19:57:00,72.0,71.0,29.65,SE,135,8.0,10.0,98,0.00,,,0.00,TxWx,2013-03-23 01:57:00,
2013-03-22 19:59:00,72.0,71.0,29.65,ESE,112,7.0,7.0,98,0.00,,,0.00,TxWx,2013-03-23 01:59:00,
2013-03-22 20:02:00,72.0,71.0,29.65,SE,135,8.0,8.0,98,0.00,,,0.00,TxWx,2013-03-23 02:02:00,
2013-03-22 20:06:00,72.0,71.0,29.65,SSW,202,11.0,12.0,98,0.00,,,0.00,TxWx,2013-03-23 02:06:00,
2013-03-22 20:07:00,72.0,71.0,29.65,SSE,157,8.0,8.0,99,0.00,,,0.00,TxWx,2013-03-23 02:07:00,
2013-03-22 20:10:00,72.0,72.0,29.65,SSE,157,9.0,10.0,99,0.00,,,0.00,TxWx,2013-03-23 02:10:00,
2013-03-22 20:12:00,72.0,72.0,29.65,SSE,157,5.0,5.0,99,0.00,,,0.00,TxWx,2013-03-23 02:12:00,
2013-03-22 20:17:00,72.0,72.0,29.66,SE,135,10.0,10.0,99,0.00,,,0.00,TxWx,2013-03-23 02:17:00,
2013-03-22 20:21:00,72.0,72.0,29.65,SSE,157,6.0,7.0,99,0.00,,,0.00,TxWx,2013-03-23 02:21:00,
2013-03-22 20:22:00,72.0,72.0,29.66,SE,135,6.0,6.0,99,0.00,,,0.00,TxWx,2013-03-23 02:22:00,
2013-03-22 20:25:00,72.0,72.0,29.66,SE,135,7.0,8.0,99,0.00,,,0.00,TxWx,2013-03-23 02:25:00,
2013-03-22 20:26:00,72.0,72.0,29.66,SE,135,6.0,7.0,99,0.00,,,0.00,TxWx,2013-03-23 02:26:00,
2013-03-22 20:27:00,72.0,72.0,29.66,ESE,112,8.0,8.0,99,0.00,,,0.00,TxWx,2013-03-23 02:27:00,
2013-03-22 20:28:00,72.0,72.0,29.66,SE,135,8.0,8.0,99,0.00,,,0.00,TxWx,2013-03-23 02:28:00,
2013-03-22 20:32:00,72.0,72.0,29.66,SE,135,13.0,13.0,99,0.00,,,0.00,TxWx,2013-03-23 02:32:00,
2013-03-22 20:34:00,72.0,72.0,29.66,SE,135,6.0,6.0,99,0.00,,,0.00,TxWx,2013-03-23 02:34:00,
2013-03-22 20:35:00,72.0,72.0,29.66,SSE,157,7.0,7.0,99,0.00,,,0.00,TxWx,2013-03-23 02:35:00,
2013-03-22 20:39:00,72.0,72.0,29.66,SE,135,7.0,7.0,99,0.00,,,0.00,TxWx,2013-03-23 02:39:00,
2013-03-22 20:40:00,72.0,72.0,29.66,SSE,157,8.0,8.0,99,0.00,,,0.00,TxWx,2013-03-23 02:40:00,
2013-03-22 20:42:00,72.0,72.0,29.66,SE,135,11.0,11.0,99,0.00,,,0.00,TxWx,2013-03-23 02:42:00,
2013-03-22 20:44:00,72.0,72.0,29.66,ESE,112,8.0,8.0,99,0.00,,,0.00,TxWx,2013-03-23 02:44:00,
2013-03-22 20:46:00,72.0,72.0,29.66,SE,135,7.0,8.0,99,0.00,,,0.00,TxWx,2013-03-23 02:46:00,
2013-03-22 20:47:00,72.0,72.0,29.66,SE,135,8.0,9.0,99,0.00,,,0.00,TxWx,2013-03-23 02:47:00,
2013-03-22 20:48:00,72.0,72.0,29.66,SE,135,6.0,6.0,99,0.00,,,0.00,TxWx,2013-03-23 02:48:00,
2013-03-22 20:50:00,72.0,72.0,29.66,SE,135,10.0,11.0,99,0.00,,,0.00,TxWx,2013-03-23 02:50:00,
2013-03-22 20:51:00,72.0,72.0,29.66,SE,135,9.0,11.0,99,0.00,,,0.00,TxWx,2013-03-23 02:51:00,
2013-03-22 20:53:00,72.0,72.0,29.66,SE,135,5.0,5.0,99,0.00,,,0.00,TxWx,2013-03-23 02:53:00,
2013-03-22 20:56:00,72.0,72.0,29.66,SE,135,7.0,8.0,99,0.00,,,0.00,TxWx,2013-03-23 02:56:00,
2013-03-22 20:57:00,72.0,72.0,29.66,SSE,157,9.0,10.0,99,0.00,,,0.00,TxWx,2013-03-23 02:57:00,
2013-03-22 20:58:00,72.0,72.0,29.66,South,180,11.0,13.0,99,0.00,,,0.00,TxWx,2013-03-23 02:58:00,
2013-03-22 20:59:00,72.0,72.0,29.66,SE,135,11.0,12.0,99,0.00,,,0.00,TxWx,2013-03-23 02:59:00,
2013-03-22 21:00:00,72.0,72.0,29.66,SSE,157,11.0,12.0,99,0.00,,,0.00,TxWx,2013-03-23 03:00:00,
2013-03-22 21:01:00,72.0,72.0,29.67,SE,135,7.0,7.0,100,0.00,,,0.00,TxWx,2013-03-23 03:01:00,
2013-03-22 21:02:00,72.0,72.0,29.66,SE,135,8.0,8.0,99,0.00,,,0.00,TxWx,2013-03-23 03:02:00,
2013-03-22 21:03:00,72.0,72.0,29.66,SE,135,13.0,14.0,99,0.00,,,0.00,TxWx,2013-03-23 03:03:00,
2013-03-22 21:04:00,72.0,72.0,29.66,SE,135,8.0,8.0,99,0.00,,,0.00,TxWx,2013-03-23 03:04:00,
2013-03-22 21:05:00,72.0,72.0,29.66,SSE,157,7.0,8.0,100,0.00,,,0.00,TxWx,2013-03-23 03:05:00,
2013-03-22 21:06:00,72.0,72.0,29.66,SE,135,11.0,12.0,100,0.00,,,0.00,TxWx,2013-03-23 03:06:00,
2013-03-22 21:07:00,72.0,72.0,29.67,SE,135,8.0,8.0,99,0.00,,,0.00,TxWx,2013-03-23 03:07:00,
2013-03-22 21:08:00,72.0,72.0,29.67,SE,135,8.0,8.0,99,0.00,,,0.00,TxWx,2013-03-23 03:08:00,
2013-03-22 21:09:00,72.0,72.0,29.66,SSE,157,11.0,12.0,100,0.00,,,0.00,TxWx,2013-03-23 03:09:00,
2013-03-22 21:10:00,72.0,72.0,29.67,SE,135,10.0,11.0,99,0.00,,,0.00,TxWx,2013-03-23 03:10:00,
2013-03-22 21:11:00,72.0,72.0,29.67,South,180,6.0,6.0,100,0.00,,,0.00,TxWx,2013-03-23 03:11:00,
2013-03-22 21:12:00,72.0,72.0,29.67,SSE,157,9.0,10.0,100,0.00,,,0.00,TxWx,2013-03-23 03:12:00,
2013-03-22 21:13:00,72.0,72.0,29.67,ESE,112,10.0,10.0,100,0.00,,,0.00,TxWx,2013-03-23 03:13:00,
2013-03-22 21:14:00,72.0,72.0,29.67,SE,135,9.0,9.0,100,0.00,,,0.00,TxWx,2013-03-23 03:14:00,
2013-03-22 21:15:00,72.0,72.0,29.66,SSE,157,9.0,9.0,99,0.00,,,0.00,TxWx,2013-03-23 03:15:00,
2013-03-22 21:16:00,72.0,72.0,29.66,SE,135,8.0,8.0,99,0.00,,,0.00,TxWx,2013-03-23 03:16:00,
2013-03-22 21:17:00,72.0,72.0,29.67,SE,135,8.0,8.0,100,0.00,,,0.00,TxWx,2013-03-23 03:17:00,
2013-03-22 21:18:00,72.0,72.0,29.66,SE,135,8.0,10.0,99,0.00,,,0.00,TxWx,2013-03-23 03:18:00,
2013-03-22 21:19:00,72.0,72.0,29.67,SE,135,13.0,13.0,100,0.00,,,0.00,TxWx,2013-03-23 03:19:00,
2013-03-22 21:20:00,72.0,72.0,29.66,SSE,157,11.0,11.0,99,0.00,,,0.00,TxWx,2013-03-23 03:20:00,
2013-03-22 21:21:00,72.0,72.0,29.67,SSE,157,8.0,8.0,100,0.00,,,0.00,TxWx,2013-03-23 03:21:00,
2013-03-22 21:22:00,72.0,72.0,29.66,South,180,7.0,8.0,99,0.00,,,0.00,TxWx,2013-03-23 03:22:00,
2013-03-22 21:24:00,72.0,72.0,29.66,SE,135,10.0,10.0,99,0.00,,,0.00,TxWx,2013-03-23 03:24:00,
2013-03-22 21:25:00,72.0,72.0,29.67,SE,135,10.0,10.0,100,0.00,,,0.00,TxWx,2013-03-23 03:25:00,
2013-03-22 21:26:00,72.0,72.0,29.66,SE,135,6.0,6.0,99,0.00,,,0.00,TxWx,2013-03-23 03:26:00,
2013-03-22 21:27:00,72.0,72.0,29.67,SE,135,8.0,10.0,100,0.00,,,0.00,TxWx,2013-03-23 03:27:00,
2013-03-22 21:28:00,72.0,72.0,29.66,SE,135,8.0,8.0,99,0.00,,,0.00,TxWx,2013-03-23 03:28:00,
2013-03-22 21:31:00,72.0,72.0,29.67,SE,135,6.0,9.0,99,0.00,,,0.00,TxWx,2013-03-23 03:31:00,
2013-03-22 21:33:00,72.0,72.0,29.67,SE,135,7.0,7.0,99,0.00,,,0.00,TxWx,2013-03-23 03:33:00,
2013-03-22 21:34:00,72.0,72.0,29.67,SE,135,12.0,13.0,99,0.00,,,0.00,TxWx,2013-03-23 03:34:00,
2013-03-22 21:36:00,72.0,72.0,29.67,SW,225,5.0,7.0,99,0.00,,,0.00,TxWx,2013-03-23 03:36:00,
2013-03-22 21:38:00,72.0,72.0,29.67,SSE,157,8.0,9.0,99,0.00,,,0.00,TxWx,2013-03-23 03:38:00,
2013-03-22 21:40:00,72.0,72.0,29.67,South,180,10.0,10.0,99,0.00,,,0.00,TxWx,2013-03-23 03:40:00,
2013-03-22 21:41:00,72.0,72.0,29.67,SSW,202,5.0,6.0,100,0.00,,,0.00,TxWx,2013-03-23 03:41:00,
2013-03-22 21:42:00,72.0,72.0,29.66,SSE,157,11.0,11.0,100,0.00,,,0.00,TxWx,2013-03-23 03:42:00,
2013-03-22 21:44:00,72.0,72.0,29.67,SE,135,7.0,8.0,100,0.00,,,0.00,TxWx,2013-03-23 03:44:00,
2013-03-22 21:45:00,72.0,72.0,29.66,SSE,157,7.0,8.0,100,0.00,,,0.00,TxWx,2013-03-23 03:45:00,
2013-03-22 21:47:00,72.0,72.0,29.67,SE,135,14.0,14.0,99,0.00,,,0.00,TxWx,2013-03-23 03:47:00,
2013-03-22 21:49:00,72.0,72.0,29.67,South,180,11.0,13.0,100,0.00,,,0.00,TxWx,2013-03-23 03:49:00,
2013-03-22 21:50:00,72.0,72.0,29.67,SSW,202,9.0,9.0,100,0.00,,,0.00,TxWx,2013-03-23 03:50:00,
2013-03-22 21:51:00,72.0,72.0,29.66,SE,135,11.0,11.0,100,0.00,,,0.00,TxWx,2013-03-23 03:51:00,
2013-03-22 21:54:00,72.0,72.0,29.66,SE,135,6.0,8.0,99,0.00,,,0.00,TxWx,2013-03-23 03:54:00,
2013-03-22 21:55:00,72.0,72.0,29.66,SE,135,7.0,9.0,99,0.00,,,0.00,TxWx,2013-03-23 03:55:00,
2013-03-22 21:56:00,72.0,72.0,29.66,ESE,112,6.0,8.0,100,0.00,,,0.00,TxWx,2013-03-23 03:56:00,
2013-03-22 21:58:00,72.0,72.0,29.66,SE,135,11.0,11.0,100,0.00,,,0.00,TxWx,2013-03-23 03:58:00,
2013-03-22 22:07:00,72.0,72.0,29.67,SSE,157,6.0,6.0,100,0.00,,,0.00,TxWx,2013-03-23 04:07:00,
2013-03-22 22:15:00,72.0,72.0,29.67,SE,135,10.0,10.0,100,0.00,,,0.00,TxWx,2013-03-23 04:15:00,
2013-03-22 22:16:00,72.0,72.0,29.67,SSE,157,7.0,7.0,100,0.00,,,0.00,TxWx,2013-03-23 04:16:00,
2013-03-22 22:18:00,72.0,72.0,29.67,SE,135,8.0,8.0,100,0.00,,,0.00,TxWx,2013-03-23 04:18:00,
2013-03-22 22:23:00,72.0,72.0,29.67,SE,135,6.0,7.0,100,0.00,,,0.00,TxWx,2013-03-23 04:23:00,
2013-03-22 22:24:00,72.0,72.0,29.67,SSE,157,5.0,7.0,100,0.00,,,0.00,TxWx,2013-03-23 04:24:00,
2013-03-22 22:28:00,72.0,72.0,29.67,ESE,112,5.0,6.0,100,0.00,,,0.00,TxWx,2013-03-23 04:28:00,
2013-03-22 22:29:00,72.0,72.0,29.67,SE,135,10.0,10.0,100,0.00,,,0.00,TxWx,2013-03-23 04:29:00,
2013-03-22 22:34:00,72.0,72.0,29.67,SSE,157,5.0,6.0,100,0.00,,,0.00,TxWx,2013-03-23 04:34:00,
2013-03-22 22:35:00,72.0,72.0,29.67,SSE,157,6.0,6.0,100,0.00,,,0.00,TxWx,2013-03-23 04:35:00,
2013-03-22 22:36:00,72.0,72.0,29.67,SE,135,14.0,14.0,100,0.00,,,0.00,TxWx,2013-03-23 04:36:00,
2013-03-22 22:40:00,72.0,72.0,29.67,SE,135,8.0,8.0,100,0.00,,,0.00,TxWx,2013-03-23 04:40:00,
2013-03-22 22:41:00,72.0,72.0,29.67,SE,135,8.0,9.0,100,0.00,,,0.00,TxWx,2013-03-23 04:41:00,
2013-03-22 22:42:00,72.0,72.0,29.67,SE,135,8.0,8.0,100,0.00,,,0.00,TxWx,2013-03-23 04:42:00,
2013-03-22 22:45:00,72.0,72.0,29.67,SE,135,10.0,10.0,100,0.00,,,0.00,TxWx,2013-03-23 04:45:00,
2013-03-22 22:46:00,72.0,72.0,29.67,SE,135,8.0,8.0,100,0.00,,,0.00,TxWx,2013-03-23 04:46:00,
2013-03-22 22:49:00,72.0,72.0,29.67,SSE,157,6.0,7.0,100,0.00,,,0.00,TxWx,2013-03-23 04:49:00,
2013-03-22 22:50:00,72.0,72.0,29.67,SE,135,7.0,7.0,100,0.00,,,0.00,TxWx,2013-03-23 04:50:00,
2013-03-22 22:51:00,72.0,72.0,29.67,SE,135,10.0,10.0,100,0.00,,,0.00,TxWx,2013-03-23 04:51:00,
2013-03-22 22:54:00,72.0,72.0,29.67,SE,135,6.0,7.0,100,0.00,,,0.00,TxWx,2013-03-23 04:54:00,
2013-03-22 22:56:00,72.0,72.0,29.67,SSE,157,8.0,8.0,100,0.00,,,0.00,TxWx,2013-03-23 04:56:00,
2013-03-22 23:00:00,72.0,72.0,29.67,SE,135,12.0,12.0,100,0.00,,,0.00,TxWx,2013-03-23 05:00:00,
2013-03-22 23:01:00,72.0,72.0,29.67,SSE,157,7.0,11.0,100,0.00,,,0.00,TxWx,2013-03-23 05:01:00,
2013-03-22 23:02:00,72.0,72.0,29.67,SE,135,8.0,8.0,100,0.00,,,0.00,TxWx,2013-03-23 05:02:00,
2013-03-22 23:05:00,72.0,72.0,29.67,SE,135,5.0,5.0,100,0.00,,,0.00,TxWx,2013-03-23 05:05:00,
2013-03-22 23:07:00,72.0,72.0,29.67,SSE,157,5.0,6.0,100,0.00,,,0.00,TxWx,2013-03-23 05:07:00,
2013-03-22 23:10:00,72.0,72.0,29.67,SSE,157,6.0,6.0,100,0.00,,,0.00,TxWx,2013-03-23 05:10:00,
2013-03-22 23:12:00,72.0,72.0,29.67,SE,135,9.0,9.0,100,0.00,,,0.00,TxWx,2013-03-23 05:12:00,
2013-03-22 23:15:00,72.0,72.0,29.67,SE,135,7.0,7.0,100,0.00,,,0.00,TxWx,2013-03-23 05:15:00,
2013-03-22 23:19:00,72.0,72.0,29.67,SSE,157,6.0,6.0,100,0.00,,,0.00,TxWx,2013-03-23 05:19:00,
2013-03-22 23:21:00,72.0,72.0,29.67,ESE,112,5.0,6.0,100,0.00,,,0.00,TxWx,2013-03-23 05:21:00,
2013-03-22 23:22:00,72.0,72.0,29.67,SE,135,8.0,10.0,100,0.00,,,0.00,TxWx,2013-03-23 05:22:00,
2013-03-22 23:26:00,72.0,72.0,29.67,ESE,112,4.0,6.0,100,0.00,,,0.00,TxWx,2013-03-23 05:26:00,
2013-03-22 23:28:00,72.0,72.0,29.67,SE,135,4.0,5.0,100,0.00,,,0.00,TxWx,2013-03-23 05:28:00,
2013-03-22 23:32:00,72.0,72.0,29.67,ESE,112,6.0,8.0,100,0.00,,,0.00,TxWx,2013-03-23 05:32:00,
2013-03-22 23:33:00,72.0,72.0,29.67,SSE,157,3.0,4.0,100,0.00,,,0.00,TxWx,2013-03-23 05:33:00,
2013-03-22 23:34:00,72.0,72.0,29.67,SSW,202,9.0,9.0,100,0.00,,,0.00,TxWx,2013-03-23 05:34:00,
2013-03-22 23:38:00,72.0,72.0,29.67,SE,135,7.0,8.0,100,0.00,,,0.00,TxWx,2013-03-23 05:38:00,
2013-03-22 23:40:00,72.0,72.0,29.67,ESE,112,8.0,8.0,100,0.00,,,0.00,TxWx,2013-03-23 05:40:00,
2013-03-22 23:41:00,71.0,71.0,29.64,SE,135,10.0,11.0,100,0.00,,,0.00,TxWx,2013-03-23 05:41:00,
2013-03-22 23:43:00,72.0,72.0,29.67,SSE,157,8.0,8.0,100,0.00,,,0.00,TxWx,2013-03-23 05:43:00,
2013-03-22 23:44:00,72.0,72.0,29.67,SE,135,13.0,13.0,100,0.00,,,0.00,TxWx,2013-03-23 05:44:00,
2013-03-22 23:46:00,71.0,71.0,29.64,SE,135,8.0,8.0,100,0.00,,,0.00,TxWx,2013-03-23 05:46:00,
2013-03-22 23:47:00,72.0,72.0,29.67,SE,135,12.0,13.0,100,0.00,,,0.00,TxWx,2013-03-23 05:47:00,
2013-03-22 23:49:00,72.0,72.0,29.67,SE,135,7.0,8.0,100,0.00,,,0.00,TxWx,2013-03-23 05:49:00,
2013-03-22 23:53:00,72.0,72.0,29.66,SSE,157,6.0,6.0,100,0.00,,,0.00,TxWx,2013-03-23 05:53:00,
2013-03-22 23:54:00,72.0,72.0,29.66,SE,135,6.0,8.0,100,0.00,,,0.00,TxWx,2013-03-23 05:54:00,
2013-03-22 23:55:00,72.0,72.0,29.66,SSE,157,6.0,6.0,100,0.00,,,0.00,TxWx,2013-03-23 05:55:00,
2013-03-22 23:59:00,72.0,72.0,29.66,SE,135,10.0,10.0,100,0.00,,,0.00,TxWx,2013-03-23 05:59:00,